FR4386 / EI-ENH 7700 Squawk Report (5th of October, 2020)

Aircraft B738 Reg No. EI-ENH Age 10 years old
Model 737 Jet engines 2 First flight 18-10-10
Registered 26-10-10 Rollout 13-10-10 Delivered 29-10-10
Construction No. 35033 Line No. 3454 Series 8AS
ADSHEX 4CA894 Airline name Ryanair Owner N/A
Airfield based Dublin~Co Dublin~EI First tracked N/A

Flight history for EI-ENH

Route Flight No Date Playback
Girona (GRO) - Bournemouth (BOH) FR9911 2020-10-21 15:26:00
Bournemouth (BOH) - Girona (GRO) FR9912 2020-10-21 13:13:00
Alicante (ALC) - Bournemouth (BOH) FR9082 2020-10-19 21:35:00
Bournemouth (BOH) - Alicante (ALC) FR9083 2020-10-19 18:33:00
Luqa (MLA) - Bournemouth (BOH) FR8742 2020-10-18 12:41:00
Bournemouth (BOH) - Luqa (MLA) FR8743 2020-10-18 08:36:00
Girona (GRO) - Bournemouth (BOH) FR9911 2020-10-18 05:32:00
Bournemouth (BOH) - Girona (GRO) FR9912 2020-10-17 18:41:00
Pafos Intl (PFO) - Bournemouth (BOH) FR5813 2020-10-17 15:14:00
Bournemouth (BOH) - Pafos Intl (PFO) FR5812 2020-10-17 10:35:00
Alicante (ALC) - Bournemouth (BOH) FR9082 2020-10-16 21:44:00
Gatwick (LGW) - Alicante (ALC) FR2715 2020-10-16 19:32:00
Alicante (ALC) - Gatwick (LGW) FR2714 2020-10-16 15:43:00
Niederrhein (NRN) - Alicante (ALC) FR6212 2020-10-16 11:08:00
Alicante (ALC) - Niederrhein (NRN) FR6213 2020-10-16 08:57:00
Växjö Småland (VXO) - Alicante (ALC) FR7428 2020-10-15 21:20:00
Alicante (ALC) - Växjö Småland (VXO) FR7429 2020-10-15 17:17:00
Billund (BLL) - Alicante (ALC) FR9067 2020-10-13 12:09:00
Alicante (ALC) - Billund (BLL) FR9066 2020-10-13 08:26:00
Gatwick (LGW) - Alicante (ALC) FR2715 2020-10-12 18:54:00
Time Lat Lon Altitude Heading Speed Vertical Rate
2020-10-05 20:02:14 GMT 48.117046 16.567841 0 25 4 0
2020-10-05 20:02:07 GMT 48.116940 16.567770 0 25 6 0
2020-10-05 20:01:58 GMT 48.116615 16.567541 0 42 10 0
2020-10-05 20:01:47 GMT 48.116543 16.566908 0 118 14 0
2020-10-05 20:01:39 GMT 48.116791 16.566168 0 115 15 0
2020-10-05 20:01:00 GMT 48.117149 16.562840 0 25 18 0
2020-10-05 20:00:57 GMT 48.116962 16.562700 0 25 20 0
2020-10-05 20:00:47 GMT 48.116161 16.561941 0 45 17 0
2020-10-05 20:00:37 GMT 48.115952 16.560974 0 106 19 0
2020-10-05 20:00:26 GMT 48.116299 16.559813 0 115 23 0
2020-10-05 20:00:15 GMT 48.116814 16.558281 0 118 28 0
2020-10-05 20:00:03 GMT 48.117451 16.556309 0 115 30 0
2020-10-05 19:59:55 GMT 48.117954 16.554724 0 115 27 0
2020-10-05 19:59:46 GMT 48.118382 16.553438 0 115 21 0
2020-10-05 19:59:09 GMT 48.117439 16.552259 0 315 20 0
2020-10-05 19:59:05 GMT 48.117126 16.552698 0 315 24 0
2020-10-05 19:58:54 GMT 48.116241 16.554108 0 309 31 0
2020-10-05 19:58:44 GMT 48.115498 16.555956 0 295 32 0
2020-10-05 19:58:34 GMT 48.114658 16.558493 600 295 65 0
2020-10-05 19:58:22 GMT 48.112530 16.564987 600 297 133 -256
2020-10-05 19:58:13 GMT 48.110153 16.572384 625 297 133 -256
2020-10-05 19:58:03 GMT 48.107639 16.580059 750 297 132 -768
2020-10-05 19:57:58 GMT 48.106201 16.584480 800 297 131 -704
2020-10-05 19:57:51 GMT 48.104233 16.590454 900 296 131 -704
2020-10-05 19:57:44 GMT 48.102242 16.596680 975 296 130 -704
2020-10-05 19:57:40 GMT 48.101498 16.598864 1,025 296 130 -704
2020-10-05 19:57:33 GMT 48.099541 16.604919 1,100 297 129 -704
2020-10-05 19:57:30 GMT 48.098888 16.606821 1,125 297 129 -704
2020-10-05 19:57:23 GMT 48.096935 16.612877 1,550 296 133 -704
2020-10-05 19:57:18 GMT 48.095631 16.616892 1,275 296 127 -640
2020-10-05 19:57:13 GMT 48.094139 16.621258 1,350 297 127 -640
2020-10-05 19:57:08 GMT 48.093155 16.624512 1,375 296 127 -704
2020-10-05 19:57:03 GMT 48.091625 16.629074 1,550 296 133 -704
2020-10-05 19:56:59 GMT 48.090729 16.631927 1,500 296 128 -704
2020-10-05 19:56:55 GMT 48.089718 16.635132 1,550 296 129 -704
2020-10-05 19:56:52 GMT 48.088882 16.637667 1,625 296 133 -704
2020-10-05 19:56:47 GMT 48.087715 16.641258 1,625 296 133 -704
2020-10-05 19:56:42 GMT 48.086197 16.645866 1,675 297 142 -768
2020-10-05 19:56:39 GMT 48.085419 16.648270 1,725 297 144 -768
2020-10-05 19:56:35 GMT 48.082352 16.657471 1,825 297 151 -768
2020-10-05 19:56:29 GMT 48.082352 16.657471 1,850 297 152 -768
2020-10-05 19:56:25 GMT 48.080887 16.661865 1,925 296 155 -832
2020-10-05 19:56:22 GMT 48.079926 16.664886 1,975 296 158 -896
2020-10-05 19:56:19 GMT 48.079056 16.667564 2,000 296 159 -832
2020-10-05 19:56:15 GMT 48.077755 16.671753 2,075 296 161 -896
2020-10-05 19:56:09 GMT 48.075851 16.677589 2,150 297 165 -896
2020-10-05 19:56:05 GMT 48.074219 16.682459 2,200 297 169 -768
2020-10-05 19:55:59 GMT 48.072372 16.688026 2,275 297 174 -960
2020-10-05 19:55:53 GMT 48.070446 16.693937 2,500 296 184 -1088
2020-10-05 19:55:49 GMT 48.068665 16.699493 2,400 296 184 -1088
2020-10-05 19:55:44 GMT 48.066956 16.704641 2,550 298 190 -1024
2020-10-05 19:55:39 GMT 48.064720 16.711050 2,650 298 194 -1344
2020-10-05 19:55:34 GMT 48.062672 16.716825 2,750 299 197 -1344
2020-10-05 19:55:29 GMT 48.060249 16.723515 2,875 300 200 -1408
2020-10-05 19:55:24 GMT 48.058155 16.728868 2,975 301 201 -1408
2020-10-05 19:55:21 GMT 48.055550 16.735769 3,125 296 202 -1536
2020-10-05 19:55:14 GMT 48.053970 16.741104 3,250 287 201 -1792
2020-10-05 19:55:11 GMT 48.052479 16.748869 3,425 281 200 -1856
2020-10-05 19:55:03 GMT 48.051819 16.755112 3,550 278 200 -1536
2020-10-05 19:54:58 GMT 48.051361 16.763023 3,675 269 203 -1088
2020-10-05 19:54:51 GMT 48.052616 16.773447 3,850 248 206 -1664
2020-10-05 19:54:48 GMT 48.053558 16.776741 3,900 244 206 -1728
2020-10-05 19:54:43 GMT 48.056076 16.782852 4,050 229 206 -1856
2020-10-05 19:54:40 GMT 48.057861 16.785873 4,150 225 205 -1856
2020-10-05 19:54:37 GMT 48.059601 16.788237 4,225 217 206 -1856
2020-10-05 19:54:34 GMT 48.063217 16.791916 4,700 201 205 -1856
2020-10-05 19:54:30 GMT 48.065884 16.793941 4,475 203 207 -1920
2020-10-05 19:54:27 GMT 48.067932 16.795143 4,625 201 205 -1792
2020-10-05 19:54:23 GMT 48.072052 16.797478 4,700 201 205 -1856
2020-10-05 19:54:20 GMT 48.074730 16.798941 4,825 201 204 -1856
2020-10-05 19:54:17 GMT 48.076904 16.800156 4,850 201 205 -1728
2020-10-05 19:54:13 GMT 48.081013 16.802462 4,975 201 205 -1536
2020-10-05 19:54:10 GMT 48.087753 16.806198 5,200 201 203 -1920
2020-10-05 19:54:02 GMT 48.090134 16.807503 5,275 201 203 -1536
2020-10-05 19:53:57 GMT 48.095211 16.810280 5,375 199 206 -448
2020-10-05 19:53:53 GMT 48.099655 16.812241 5,425 192 210 -448
2020-10-05 19:53:50 GMT 48.102428 16.813026 5,425 187 213 -320
2020-10-05 19:53:46 GMT 48.106018 16.813408 5,450 179 217 -320
2020-10-05 19:53:42 GMT 48.109634 16.812927 5,450 174 218 -320
2020-10-05 19:53:39 GMT 48.112576 16.812040 5,475 163 226 -320
2020-10-05 19:53:36 GMT 48.114902 16.810913 5,500 159 229 -320
2020-10-05 19:53:32 GMT 48.119293 16.807777 5,525 148 235 -320
2020-10-05 19:53:29 GMT 48.122257 16.804928 5,525 140 239 -320
2020-10-05 19:53:26 GMT 48.124557 16.802010 5,575 134 244 -256
2020-10-05 19:53:21 GMT 48.128494 16.795555 5,575 119 256 -192
2020-10-05 19:53:18 GMT 48.130173 16.791969 5,575 120 254 -192
2020-10-05 19:53:13 GMT 48.134857 16.778938 5,600 115 267 -192
2020-10-05 19:53:06 GMT 48.136925 16.772532 5,600 115 267 -192
2020-10-05 19:53:01 GMT 48.140087 16.762741 5,625 115 273 -320
2020-10-05 19:52:56 GMT 48.144745 16.748304 5,675 115 279 -448
2020-10-05 19:52:52 GMT 48.144745 16.748304 5,700 115 283 -512
2020-10-05 19:52:49 GMT 48.148178 16.737602 5,750 115 286 -1088
2020-10-05 19:52:46 GMT 48.150467 16.730461 5,800 115 287 -1280
2020-10-05 19:52:42 GMT 48.150467 16.730461 5,875 115 287 -1280
2020-10-05 19:52:38 GMT 48.155411 16.715218 6,025 115 290 -1280
2020-10-05 19:52:34 GMT 48.155411 16.715218 6,025 115 290 -1280
2020-10-05 19:52:31 GMT 48.157333 16.709312 6,050 115 290 -1280
2020-10-05 19:52:28 GMT 48.160126 16.700867 6,200 116 290 -1280
2020-10-05 19:52:25 GMT 48.163193 16.691471 6,300 116 290 -1280
2020-10-05 19:52:21 GMT 48.163193 16.691471 6,300 116 290 -1280
2020-10-05 19:52:16 GMT 48.166157 16.682739 6,450 116 290 -1280
2020-10-05 19:52:10 GMT 48.169373 16.673161 6,550 116 289 -1344
2020-10-05 19:52:05 GMT 48.172302 16.664454 6,650 117 290 -1152
2020-10-05 19:52:02 GMT 48.174770 16.657297 6,700 118 290 -832
2020-10-05 19:51:58 GMT 48.177422 16.650143 6,725 124 296 -64
2020-10-05 19:51:55 GMT 48.178913 16.646528 6,725 124 296 -64
2020-10-05 19:51:51 GMT 48.181705 16.640385 6,725 127 298 -64
2020-10-05 19:51:47 GMT 48.185337 16.633373 6,750 130 302 -128
2020-10-05 19:51:43 GMT 48.189606 16.626259 6,750 135 307 -128
2020-10-05 19:51:40 GMT 48.193298 16.620869 6,750 136 308 -128
2020-10-05 19:51:36 GMT 48.196369 16.616749 6,775 142 316 -64
2020-10-05 19:51:33 GMT 48.199951 16.612526 6,775 142 318 -64
2020-10-05 19:51:30 GMT 48.204933 16.606918 6,775 142 320 -64
2020-10-05 19:51:27 GMT 48.207310 16.604174 6,775 143 328 0
2020-10-05 19:51:22 GMT 48.212997 16.597878 6,775 143 333 64
2020-10-05 19:51:19 GMT 48.216667 16.593693 6,775 143 340 0
2020-10-05 19:51:15 GMT 48.223183 16.586391 6,775 143 349 -640
2020-10-05 19:51:12 GMT 48.226181 16.583088 6,800 143 352 -832
2020-10-05 19:51:09 GMT 48.229843 16.579002 6,850 143 354 -1280
2020-10-05 19:51:06 GMT 48.233936 16.574394 6,925 143 360 -2496
2020-10-05 19:51:03 GMT 48.237892 16.569984 7,025 143 358 -2304
2020-10-05 19:51:00 GMT 48.241898 16.565432 7,150 143 360 -2816
2020-10-05 19:50:57 GMT 48.246506 16.560301 7,350 143 360 -3456
2020-10-05 19:50:52 GMT 48.253723 16.552204 7,575 143 358 -4288
2020-10-05 19:50:49 GMT 48.261684 16.543386 8,025 143 358 -3328
2020-10-05 19:50:45 GMT 48.261684 16.543386 8,150 143 360 -2240
2020-10-05 19:50:42 GMT 48.265221 16.539482 8,200 143 360 -2112
2020-10-05 19:50:39 GMT 48.269943 16.534212 8,300 142 361 -2240
2020-10-05 19:50:36 GMT 48.276531 16.526184 8,475 140 361 -2624
2020-10-05 19:50:33 GMT 48.276531 16.526184 8,550 137 363 -3200
2020-10-05 19:50:30 GMT 48.280396 16.520981 8,725 135 364 -3456
2020-10-05 19:50:27 GMT 48.284042 16.515551 9,050 134 364 -3200
2020-10-05 19:50:24 GMT 48.288265 16.508764 9,050 131 366 -3008
2020-10-05 19:50:21 GMT 48.291412 16.503296 9,400 127 370 -2944
2020-10-05 19:50:17 GMT 48.295059 16.496477 9,575 124 371 -2880
2020-10-05 19:50:14 GMT 48.299156 16.488022 9,600 123 372 -2880
2020-10-05 19:50:11 GMT 48.301529 16.482592 9,725 121 373 -2880
2020-10-05 19:50:08 GMT 48.304836 16.474434 10,000 116 377 -2944
2020-10-05 19:50:05 GMT 48.308746 16.463373 10,125 116 377 -2944
2020-10-05 19:49:59 GMT 48.311493 16.454845 10,375 115 379 -2944
2020-10-05 19:49:56 GMT 48.314472 16.445377 10,500 115 378 -2944
2020-10-05 19:49:53 GMT 48.316040 16.440336 10,600 115 381 -2944
2020-10-05 19:49:49 GMT 48.318878 16.431534 10,825 115 382 -2944
2020-10-05 19:49:46 GMT 48.321316 16.423765 11,000 115 383 -3008
2020-10-05 19:49:43 GMT 48.323505 16.416899 11,200 115 383 -3008
2020-10-05 19:49:40 GMT 48.325645 16.410177 11,225 115 384 -3008
2020-10-05 19:49:37 GMT 48.328400 16.401390 11,425 115 385 -2944
2020-10-05 19:49:32 GMT 48.331417 16.391962 11,550 115 386 -3008
2020-10-05 19:49:28 GMT 48.335312 16.379488 11,875 115 387 -3008
2020-10-05 19:49:25 GMT 48.337654 16.372013 12,025 115 387 -3008
2020-10-05 19:49:22 GMT 48.339066 16.367447 12,125 115 388 -3008
2020-10-05 19:49:19 GMT 48.341427 16.359871 12,550 114 390 -3072
2020-10-05 19:49:16 GMT 48.344032 16.351416 12,375 114 390 -3072
2020-10-05 19:49:13 GMT 48.346828 16.342451 12,650 114 391 -3072
2020-10-05 19:49:09 GMT 48.349060 16.335297 12,775 115 391 -3072
2020-10-05 19:49:06 GMT 48.352180 16.325321 12,850 115 391 -3008
2020-10-05 19:49:01 GMT 48.355270 16.315331 13,175 115 394 -2944
2020-10-05 19:48:58 GMT 48.357971 16.306740 13,475 115 395 -3008
2020-10-05 19:48:55 GMT 48.359909 16.300531 13,525 115 396 -3072
2020-10-05 19:48:52 GMT 48.362549 16.292021 13,650 115 396 -3136
2020-10-05 19:48:48 GMT 48.365868 16.281378 13,875 115 397 -3072
2020-10-05 19:48:45 GMT 48.367821 16.275089 14,075 115 397 -3008
2020-10-05 19:48:42 GMT 48.370468 16.266457 14,175 115 398 -3008
2020-10-05 19:48:38 GMT 48.373455 16.257019 14,425 115 400 -3008
2020-10-05 19:48:35 GMT 48.375782 16.249430 14,525 115 400 -3008
2020-10-05 19:48:32 GMT 48.378250 16.241526 14,675 115 401 -3008
2020-10-05 19:48:29 GMT 48.383698 16.224060 15,025 115 403 -3008
2020-10-05 19:48:25 GMT 48.383698 16.224060 15,025 115 403 -3008
2020-10-05 19:48:22 GMT 48.385666 16.217651 15,150 115 403 -3008
2020-10-05 19:48:19 GMT 48.388443 16.208736 15,400 115 406 -2880
2020-10-05 19:48:16 GMT 48.390839 16.201101 15,400 115 406 -2880
2020-10-05 19:48:12 GMT 48.394547 16.189199 15,675 115 408 -2624
2020-10-05 19:48:08 GMT 48.397522 16.179764 15,775 115 409 -2304
2020-10-05 19:48:05 GMT 48.399662 16.172815 15,900 115 412 -1664
2020-10-05 19:47:59 GMT 48.404526 16.157368 16,075 115 413 -1152
2020-10-05 19:47:56 GMT 48.406403 16.151312 16,100 115 414 -960
2020-10-05 19:47:53 GMT 48.411346 16.135536 16,200 115 414 -1024
2020-10-05 19:47:47 GMT 48.414825 16.124409 16,275 115 415 -1280
2020-10-05 19:47:42 GMT 48.418213 16.113564 16,450 115 418 -2368
2020-10-05 19:47:39 GMT 48.421600 16.102858 16,550 115 418 -2688
2020-10-05 19:47:36 GMT 48.423340 16.097223 16,775 115 419 -3328
2020-10-05 19:47:32 GMT 48.426590 16.086802 16,875 115 420 -3520
2020-10-05 19:47:26 GMT 48.431412 16.071262 17,175 114 421 -2624
2020-10-05 19:47:22 GMT 48.435562 16.057858 17,350 114 423 -1408
2020-10-05 19:47:16 GMT 48.440025 16.043436 17,450 114 424 -1216
2020-10-05 19:47:13 GMT 48.445450 16.025812 17,750 114 425 -1280
2020-10-05 19:47:10 GMT 48.445450 16.025812 17,600 115 425 -1216
2020-10-05 19:47:06 GMT 48.448357 16.016476 17,675 114 426 -1216
2020-10-05 19:47:02 GMT 48.453781 15.998911 17,850 114 426 -1152
2020-10-05 19:46:59 GMT 48.453781 15.998911 17,825 114 426 -1216
2020-10-05 19:46:56 GMT 48.456573 15.989896 18,000 114 426 -1216
2020-10-05 19:46:52 GMT 48.459778 15.979473 18,000 114 426 -1216
2020-10-05 19:46:49 GMT 48.465088 15.962219 18,050 114 425 -1152
2020-10-05 19:46:45 GMT 48.465088 15.962219 18,150 114 425 -1088
2020-10-05 19:46:41 GMT 48.468842 15.949965 18,200 114 426 -1152
2020-10-05 19:46:35 GMT 48.473961 15.933428 18,375 114 426 -1280
2020-10-05 19:46:30 GMT 48.477997 15.920246 18,400 114 427 -1280
2020-10-05 19:46:25 GMT 48.482025 15.907076 18,575 114 428 -1280
2020-10-05 19:46:21 GMT 48.485737 15.895048 18,600 114 429 -1216
2020-10-05 19:46:18 GMT 48.488392 15.886447 18,650 114 429 -1216
2020-10-05 19:46:15 GMT 48.490486 15.879581 18,775 114 429 -1216
2020-10-05 19:46:10 GMT 48.494770 15.865631 18,800 114 429 -1216
2020-10-05 19:46:07 GMT 48.496628 15.859610 18,900 114 430 -1344
2020-10-05 19:46:04 GMT 48.499191 15.851320 18,975 114 430 -1280
2020-10-05 19:46:01 GMT 48.502266 15.841273 18,975 114 430 -1280
2020-10-05 19:45:58 GMT 48.504547 15.833764 19,075 114 432 -1280
2020-10-05 19:45:55 GMT 48.507618 15.823854 19,200 114 433 -1216
2020-10-05 19:45:50 GMT 48.511250 15.812073 19,225 114 433 -1216
2020-10-05 19:45:47 GMT 48.513855 15.803616 19,275 114 433 -1216
2020-10-05 19:45:44 GMT 48.520660 15.781649 19,425 114 433 -1152
2020-10-05 19:45:39 GMT 48.522995 15.773973 19,500 114 433 -1152
2020-10-05 19:45:36 GMT 48.522995 15.773973 19,500 114 433 -1152
2020-10-05 19:45:30 GMT 48.528240 15.756997 19,600 114 432 -1152
2020-10-05 19:45:27 GMT 48.530777 15.748690 19,700 114 432 -1152
2020-10-05 19:45:24 GMT 48.533779 15.738999 19,750 114 433 -1152
2020-10-05 19:45:20 GMT 48.536819 15.729041 19,800 114 434 -1280
2020-10-05 19:45:16 GMT 48.540112 15.718328 19,875 114 434 -1152
2020-10-05 19:45:13 GMT 48.542252 15.711244 19,950 114 435 -1152
2020-10-05 19:45:09 GMT 48.546116 15.698668 20,025 114 435 -1152
2020-10-05 19:45:06 GMT 48.548584 15.690519 20,075 114 435 -1152
2020-10-05 19:45:03 GMT 48.550632 15.683851 20,125 114 436 -1152
2020-10-05 19:44:58 GMT 48.554871 15.669901 20,250 114 437 -1216
2020-10-05 19:44:52 GMT 48.560036 15.652916 20,350 114 438 -1152
2020-10-05 19:44:48 GMT 48.565567 15.634813 20,450 114 441 -1216
2020-10-05 19:44:45 GMT 48.565567 15.634813 20,475 114 439 -1216
2020-10-05 19:44:42 GMT 48.568462 15.625233 20,575 114 440 -1216
2020-10-05 19:44:39 GMT 48.571106 15.616572 20,625 114 441 -1216
2020-10-05 19:44:36 GMT 48.573624 15.608262 20,650 114 441 -1216
2020-10-05 19:44:33 GMT 48.576794 15.597912 20,750 114 442 -1216
2020-10-05 19:44:28 GMT 48.580379 15.586130 20,875 114 443 -1280
2020-10-05 19:44:25 GMT 48.582893 15.577818 20,900 114 444 -1344
2020-10-05 19:44:22 GMT 48.585316 15.569795 20,975 114 445 -1344
2020-10-05 19:44:19 GMT 48.589050 15.557486 21,050 114 447 -1280
2020-10-05 19:44:15 GMT 48.591660 15.548894 21,150 114 449 -1216
2020-10-05 19:44:12 GMT 48.593948 15.541147 21,175 114 450 -1216
2020-10-05 19:44:09 GMT 48.596813 15.531705 21,225 114 450 -1216
2020-10-05 19:44:06 GMT 48.599167 15.523893 21,275 114 451 -1216
2020-10-05 19:44:03 GMT 48.604477 15.506427 21,425 114 452 -1216
2020-10-05 19:43:57 GMT 48.606857 15.498681 21,450 114 452 -1216
2020-10-05 19:43:54 GMT 48.609383 15.490361 21,500 114 453 -1216
2020-10-05 19:43:51 GMT 48.612312 15.480604 21,600 114 454 -1280
2020-10-05 19:43:48 GMT 48.615013 15.471641 21,675 114 455 -1216
2020-10-05 19:43:45 GMT 48.622192 15.447975 21,800 114 456 -1280
2020-10-05 19:43:40 GMT 48.622192 15.447975 21,800 114 456 -1280
2020-10-05 19:43:37 GMT 48.626907 15.432270 21,950 114 456 -1280
2020-10-05 19:43:31 GMT 48.630295 15.421072 22,025 114 457 -1280
2020-10-05 19:43:28 GMT 48.632469 15.413818 22,100 114 458 -1216
2020-10-05 19:43:25 GMT 48.635311 15.404422 22,175 114 458 -1152
2020-10-05 19:43:22 GMT 48.641647 15.383395 22,300 114 457 -1216
2020-10-05 19:43:18 GMT 48.641647 15.383395 22,300 114 457 -1152
2020-10-05 19:43:14 GMT 48.648067 15.362067 22,450 114 456 -1152
2020-10-05 19:43:10 GMT 48.648067 15.362067 22,450 114 456 -1216
2020-10-05 19:43:07 GMT 48.651184 15.351514 22,525 114 455 -1216
2020-10-05 19:43:03 GMT 48.654816 15.339444 22,575 114 455 -1216
2020-10-05 19:42:59 GMT 48.658813 15.326139 22,675 114 456 -1216
2020-10-05 19:42:56 GMT 48.660233 15.321350 22,725 114 456 -1216
2020-10-05 19:42:53 GMT 48.663025 15.312124 22,750 114 457 -1216
2020-10-05 19:42:49 GMT 48.665943 15.302437 22,850 114 458 -1216
2020-10-05 19:42:46 GMT 48.668781 15.293041 22,950 114 459 -1152
2020-10-05 19:42:43 GMT 48.671173 15.285011 23,075 114 457 -1216
2020-10-05 19:42:39 GMT 48.675346 15.271141 23,050 114 458 -1216
2020-10-05 19:42:36 GMT 48.677856 15.262897 23,100 114 457 -1216
2020-10-05 19:42:33 GMT 48.680374 15.254517 23,175 114 456 -1152
2020-10-05 19:42:29 GMT 48.687263 15.231460 23,275 114 455 -1152
2020-10-05 19:42:26 GMT 48.687263 15.231460 23,325 114 455 -1152
2020-10-05 19:42:23 GMT 48.689034 15.225677 23,475 114 454 -1152
2020-10-05 19:42:19 GMT 48.692230 15.214938 23,500 114 454 -1152
2020-10-05 19:42:14 GMT 48.697495 15.197543 23,550 114 454 -1152
2020-10-05 19:42:07 GMT 48.703491 15.177542 23,700 114 453 -1152
2020-10-05 19:42:04 GMT 48.705559 15.170601 23,700 114 452 -1152
2020-10-05 19:42:01 GMT 48.707886 15.162893 23,775 114 452 -1152
2020-10-05 19:41:58 GMT 48.710304 15.154700 23,925 114 451 -1216
2020-10-05 19:41:55 GMT 48.713287 15.144724 23,925 114 450 -1216
2020-10-05 19:41:52 GMT 48.716217 15.135005 23,975 114 450 -1216
2020-10-05 19:41:48 GMT 48.720081 15.121958 24,100 114 449 -1280
2020-10-05 19:41:45 GMT 48.721760 15.116320 24,125 114 449 -1280
2020-10-05 19:41:42 GMT 48.723999 15.108807 24,325 114 449 -1344
2020-10-05 19:41:39 GMT 48.727112 15.098395 24,275 114 449 -1280
2020-10-05 19:41:35 GMT 48.730499 15.086905 24,400 114 449 -1408
2020-10-05 19:41:32 GMT 48.732605 15.079820 24,525 113 450 -1664
2020-10-05 19:41:28 GMT 48.735817 15.068833 24,525 113 451 -1856
2020-10-05 19:41:25 GMT 48.739105 15.057608 24,675 113 454 -2624
2020-10-05 19:41:22 GMT 48.741302 15.050213 24,800 113 460 -1664
2020-10-05 19:41:18 GMT 48.746899 15.030959 24,950 113 460 -1664
2020-10-05 19:41:12 GMT 48.754623 15.004648 25,350 113 468 -2048
2020-10-05 19:41:07 GMT 48.754623 15.004648 25,375 114 471 -2816
2020-10-05 19:41:04 GMT 48.757233 14.995774 25,375 114 472 -3008
2020-10-05 19:41:01 GMT 48.763000 14.976267 26,300 114 473 -4096
2020-10-05 19:40:57 GMT 48.763000 14.976267 26,300 114 473 -4608
2020-10-05 19:40:54 GMT 48.765656 14.967210 26,050 114 470 -5440
2020-10-05 19:40:51 GMT 48.768082 14.959083 26,300 114 470 -5440
2020-10-05 19:40:48 GMT 48.772034 14.945671 26,700 114 467 -5312
2020-10-05 19:40:44 GMT 48.774719 14.936547 32,125 114 466 -5056
2020-10-05 19:40:41 GMT 48.776917 14.929223 32,125 113 455 -1536
2020-10-05 19:40:38 GMT 48.780087 14.918422 31,925 114 452 -2112
2020-10-05 19:40:35 GMT 48.782696 14.909748 27,725 114 465 -4800
2020-10-05 19:40:32 GMT 48.786186 14.897895 28,125 114 463 -5440
2020-10-05 19:40:27 GMT 48.789780 14.885911 28,250 114 461 -5504
2020-10-05 19:40:23 GMT 48.793762 14.872742 28,775 114 459 -4992
2020-10-05 19:40:20 GMT 48.795498 14.866815 28,950 114 459 -4864
2020-10-05 19:40:14 GMT 48.801498 14.846825 29,425 114 458 -4416
2020-10-05 19:40:11 GMT 48.803596 14.840000 29,875 114 456 -5120
2020-10-05 19:40:07 GMT 48.807312 14.827599 30,000 114 454 -4992
2020-10-05 19:40:04 GMT 48.810379 14.817388 30,350 114 453 -4608
2020-10-05 19:40:01 GMT 48.812443 14.810365 30,475 114 453 -4160
2020-10-05 19:39:57 GMT 48.815735 14.799429 30,625 114 453 -3968
2020-10-05 19:39:54 GMT 48.819260 14.787739 31,475 114 451 -4736
2020-10-05 19:39:51 GMT 48.821148 14.781454 32,275 114 451 -3328
2020-10-05 19:39:48 GMT 48.823471 14.773653 31,350 114 451 -4672
2020-10-05 19:39:44 GMT 48.829620 14.752904 31,700 114 451 -3200
2020-10-05 19:39:41 GMT 48.829620 14.752904 31,850 114 451 -2496
2020-10-05 19:39:38 GMT 48.833389 14.740328 31,950 114 453 -1600
2020-10-05 19:39:35 GMT 48.834835 14.735340 32,025 114 454 -1536
2020-10-05 19:39:32 GMT 48.837845 14.725201 32,100 114 454 -1536
2020-10-05 19:39:29 GMT 48.844330 14.702887 32,200 113 454 -1536
2020-10-05 19:39:25 GMT 48.844330 14.702887 32,300 113 454 -1536
2020-10-05 19:39:21 GMT 48.847641 14.691679 32,400 113 455 -1536
2020-10-05 19:39:18 GMT 48.849518 14.685129 32,475 113 455 -1472
2020-10-05 19:39:12 GMT 48.854553 14.667804 32,575 113 456 -1472
2020-10-05 19:39:09 GMT 48.858902 14.652874 32,725 113 455 -1536
2020-10-05 19:39:03 GMT 48.862488 14.640583 32,850 113 455 -1600
2020-10-05 19:39:00 GMT 48.865128 14.631465 33,000 113 454 -1536
2020-10-05 19:38:56 GMT 48.868561 14.619774 33,000 113 454 -1536
2020-10-05 19:38:53 GMT 48.870529 14.612943 33,100 113 453 -1600
2020-10-05 19:38:50 GMT 48.872726 14.605384 33,175 113 453 -1600
2020-10-05 19:38:47 GMT 48.876114 14.593858 33,275 113 453 -1600
2020-10-05 19:38:43 GMT 48.879410 14.582379 33,350 113 454 -1600
2020-10-05 19:38:40 GMT 48.884785 14.563679 33,475 113 456 -1600
2020-10-05 19:38:36 GMT 48.884785 14.563679 33,525 113 457 -1600
2020-10-05 19:38:32 GMT 48.888702 14.549842 33,650 113 459 -1536
2020-10-05 19:38:26 GMT 48.896561 14.522552 33,850 113 464 -1472
2020-10-05 19:38:23 GMT 48.896561 14.522552 33,925 113 465 -1536
2020-10-05 19:38:20 GMT 48.898563 14.515541 33,950 113 466 -1600
2020-10-05 19:38:17 GMT 48.900658 14.508314 34,050 113 467 -1536
2020-10-05 19:38:14 GMT 48.903965 14.496894 34,100 113 468 -1472
2020-10-05 19:38:11 GMT 48.906693 14.487516 34,475 113 471 -1536
2020-10-05 19:38:08 GMT 48.909878 14.476367 34,275 113 470 -1408
2020-10-05 19:38:05 GMT 48.911598 14.470367 34,450 113 471 -1536
2020-10-05 19:38:01 GMT 48.915024 14.458571 34,400 113 471 -1536
2020-10-05 19:37:58 GMT 48.920815 14.438709 34,650 113 470 -1472
2020-10-05 19:37:52 GMT 48.925194 14.423676 34,725 113 469 -1472
2020-10-05 19:37:49 GMT 48.925194 14.423676 34,825 113 468 -1536
2020-10-05 19:37:46 GMT 48.928024 14.413992 34,825 113 468 -1472
2020-10-05 19:37:43 GMT 48.930817 14.404273 34,900 113 468 -1536
2020-10-05 19:37:40 GMT 48.933990 14.393391 34,900 113 468 -1536
2020-10-05 19:37:37 GMT 48.936676 14.384132 35,100 113 466 -1600
2020-10-05 19:37:34 GMT 48.942078 14.366314 35,175 115 463 -1600
2020-10-05 19:37:30 GMT 48.942078 14.366314 35,250 116 462 -1664
2020-10-05 19:37:27 GMT 48.945023 14.357107 35,325 117 461 -1600
2020-10-05 19:37:24 GMT 48.948002 14.348289 35,350 117 461 -1600
2020-10-05 19:37:20 GMT 48.952103 14.336806 35,525 119 459 -1600
2020-10-05 19:37:17 GMT 48.955078 14.328778 35,600 120 457 -1664
2020-10-05 19:37:14 GMT 48.961945 14.311523 35,675 121 456 -1664
2020-10-05 19:37:11 GMT 48.961945 14.311523 35,775 123 454 -1664
2020-10-05 19:37:08 GMT 48.965366 14.303549 36,100 124 455 -1664
2020-10-05 19:37:05 GMT 48.968670 14.296032 35,950 125 453 -1664
2020-10-05 19:37:02 GMT 48.973618 14.285325 36,025 125 454 -1664
2020-10-05 19:36:59 GMT 48.976685 14.278776 36,050 125 455 -1664
2020-10-05 19:36:56 GMT 48.980217 14.271023 36,150 123 457 -1664
2020-10-05 19:36:53 GMT 48.982727 14.265254 36,200 123 459 -1600
2020-10-05 19:36:49 GMT 48.988735 14.251002 36,375 121 463 -1600
2020-10-05 19:36:46 GMT 48.990967 14.245535 36,375 120 464 -1600
2020-10-05 19:36:43 GMT 48.998016 14.226943 36,550 118 469 -1536
2020-10-05 19:36:40 GMT 48.998016 14.226943 36,575 118 470 -1472
2020-10-05 19:36:36 GMT 49.001770 14.216309 36,625 117 471 -1472
2020-10-05 19:36:33 GMT 49.004379 14.208562 36,675 113 479 -1472
2020-10-05 19:36:30 GMT 49.008381 14.195998 36,850 114 478 -1408
2020-10-05 19:36:27 GMT 49.010239 14.189899 36,975 113 479 -1472
2020-10-05 19:36:24 GMT 49.012619 14.181871 36,950 113 479 -1408
2020-10-05 19:36:21 GMT 49.016109 14.169617 37,050 113 479 -1472
2020-10-05 19:36:18 GMT 49.018250 14.162081 37,125 113 478 -1536
2020-10-05 19:36:15 GMT 49.021229 14.151619 37,200 113 478 -1536
2020-10-05 19:36:12 GMT 49.023880 14.142362 37,325 113 477 -1600
2020-10-05 19:36:09 GMT 49.026443 14.133207 37,400 113 477 -1600
2020-10-05 19:36:06 GMT 49.031616 14.114967 37,450 113 478 -1600
2020-10-05 19:36:03 GMT 49.031616 14.114967 37,500 113 478 -1536
2020-10-05 19:36:00 GMT 49.034546 14.104614 38,300 113 480 -1408
2020-10-05 19:35:57 GMT 49.037292 14.094755 37,675 112 479 -1536
2020-10-05 19:35:54 GMT 49.038574 14.090177 38,075 112 479 -1536
2020-10-05 19:35:51 GMT 49.042557 14.075740 37,825 112 479 -1472
2020-10-05 19:35:48 GMT 49.044926 14.067343 38,125 113 480 -1408
2020-10-05 19:35:45 GMT 49.047531 14.057946 37,975 113 480 -1408
2020-10-05 19:35:39 GMT 49.054596 14.032921 38,150 113 479 -1408
2020-10-05 19:35:33 GMT 49.057587 14.022385 38,250 113 478 -1408
2020-10-05 19:35:29 GMT 49.061371 14.009259 38,350 113 476 -1472
2020-10-05 19:35:25 GMT 49.064392 13.998836 38,475 113 475 -1536
2020-10-05 19:35:22 GMT 49.066589 13.991089 38,550 113 473 -1536
2020-10-05 19:35:19 GMT 49.069885 13.979750 38,575 113 473 -1536
2020-10-05 19:35:16 GMT 49.072540 13.970454 38,750 113 473 -1536
2020-10-05 19:35:13 GMT 49.078346 13.950107 38,750 113 472 -1472
2020-10-05 19:35:10 GMT 49.078346 13.950107 38,825 113 472 -1472
2020-10-05 19:35:07 GMT 49.080460 13.942566 38,900 113 474 -1408
2020-10-05 19:35:04 GMT 49.082584 13.935073 39,275 112 473 -1408
2020-10-05 19:35:00 GMT 49.086773 13.920111 39,050 112 476 -1408
2020-10-05 19:34:57 GMT 49.089520 13.910209 39,125 112 476 -1344
2020-10-05 19:34:54 GMT 49.091125 13.904325 39,175 112 475 -1408
2020-10-05 19:34:49 GMT 49.096130 13.886285 39,400 112 473 -1472
2020-10-05 19:34:46 GMT 49.099110 13.875588 39,425 112 472 -1472
2020-10-05 19:34:40 GMT 49.103668 13.859112 39,550 112 470 -1472
2020-10-05 19:34:37 GMT 49.105957 13.850943 39,600 112 469 -1472
2020-10-05 19:34:34 GMT 49.108467 13.841834 39,700 112 466 -1536
2020-10-05 19:34:31 GMT 49.110191 13.835690 39,775 112 466 -1536
2020-10-05 19:34:28 GMT 49.113739 13.822843 39,850 112 466 -1600
2020-10-05 19:34:22 GMT 49.118755 13.804755 40,025 112 463 -1664
2020-10-05 19:34:19 GMT 49.120850 13.797310 40,050 112 463 -1600
2020-10-05 19:34:16 GMT 49.123398 13.788123 40,125 112 463 -1664
2020-10-05 19:34:13 GMT 49.125366 13.781048 40,475 112 459 -512
2020-10-05 19:34:10 GMT 49.131233 13.759942 40,325 112 461 -1152
2020-10-05 19:34:07 GMT 49.131233 13.759942 40,375 112 461 -576
2020-10-05 19:34:04 GMT 49.133560 13.751413 40,375 112 461 -512
2020-10-05 19:34:01 GMT 49.135712 13.743756 40,425 112 461 -512
2020-10-05 19:33:58 GMT 49.140682 13.725755 40,450 112 460 -512
2020-10-05 19:33:52 GMT 49.142963 13.717515 40,475 112 459 -512
2020-10-05 19:33:49 GMT 49.146378 13.705022 40,525 112 459 -512
2020-10-05 19:33:46 GMT 49.149296 13.694530 40,575 112 454 -576
2020-10-05 19:33:43 GMT 49.150597 13.689688 40,600 112 457 -512
2020-10-05 19:33:40 GMT 49.152969 13.681007 40,575 112 456 -576
2020-10-05 19:33:37 GMT 49.158092 13.662439 40,700 112 456 -576
2020-10-05 19:33:34 GMT 49.158092 13.662439 40,650 112 456 -576
2020-10-05 19:33:31 GMT 49.160889 13.652273 40,750 112 455 -576
2020-10-05 19:33:28 GMT 49.162933 13.644875 40,700 112 454 -576
2020-10-05 19:33:25 GMT 49.165260 13.636418 40,725 112 455 -576
2020-10-05 19:33:22 GMT 49.169079 13.622685 40,750 112 454 -576
2020-10-05 19:33:18 GMT 49.171593 13.613506 40,800 112 454 -576
2020-10-05 19:33:15 GMT 49.174011 13.604760 40,825 112 454 -576
2020-10-05 19:33:12 GMT 49.176247 13.596665 40,850 112 454 -576
2020-10-05 19:33:09 GMT 49.178146 13.589947 40,850 112 454 -576
2020-10-05 19:33:05 GMT 49.182205 13.575126 40,925 112 455 -640
2020-10-05 19:33:02 GMT 49.184254 13.567754 40,950 112 455 -640
2020-10-05 19:32:59 GMT 49.189095 13.550335 40,975 112 455 -256
2020-10-05 19:32:56 GMT 49.189095 13.550335 41,000 112 455 -256
2020-10-05 19:32:53 GMT 49.191936 13.539927 41,000 112 455 0
2020-10-05 19:32:50 GMT 49.193939 13.532762 41,000 112 455 64
2020-10-05 19:32:47 GMT 49.198792 13.515155 41,000 112 455 64
2020-10-05 19:32:44 GMT 49.198792 13.515155 41,000 112 455 0
2020-10-05 19:32:41 GMT 49.201401 13.505648 41,000 112 455 0
2020-10-05 19:32:38 GMT 49.203995 13.496343 41,000 112 455 0
2020-10-05 19:32:35 GMT 49.208359 13.480436 41,000 112 455 0
2020-10-05 19:32:29 GMT 49.211105 13.470436 41,000 112 455 0
2020-10-05 19:32:26 GMT 49.214493 13.458041 41,000 112 455 0
2020-10-05 19:32:23 GMT 49.216515 13.450663 41,000 112 455 0
2020-10-05 19:32:20 GMT 49.218052 13.445025 41,000 112 455 -64
2020-10-05 19:32:17 GMT 49.220856 13.434660 41,000 112 455 -64
2020-10-05 19:32:14 GMT 49.223923 13.423462 41,000 112 455 0
2020-10-05 19:32:11 GMT 49.225342 13.418250 41,000 112 455 0
2020-10-05 19:32:08 GMT 49.227814 13.409306 41,000 112 455 64
2020-10-05 19:32:05 GMT 49.230667 13.398767 41,000 112 455 0
2020-10-05 19:32:02 GMT 49.233536 13.388249 41,000 112 455 0
2020-10-05 19:31:59 GMT 49.235275 13.381981 41,000 112 455 0
2020-10-05 19:31:56 GMT 49.240955 13.361037 41,000 112 455 0
2020-10-05 19:31:53 GMT 49.240955 13.361037 41,000 112 455 0
2020-10-05 19:31:50 GMT 49.242599 13.355079 41,000 112 455 0
2020-10-05 19:31:46 GMT 49.246262 13.341667 41,000 112 455 64
2020-10-05 19:31:43 GMT 49.248405 13.333716 41,000 112 455 64
2020-10-05 19:31:40 GMT 49.250748 13.325078 41,000 112 455 64
2020-10-05 19:31:37 GMT 49.253494 13.315007 41,000 112 455 64
2020-10-05 19:31:34 GMT 49.255898 13.306106 41,000 112 455 64
2020-10-05 19:31:31 GMT 49.257706 13.299514 41,000 112 455 64
2020-10-05 19:31:28 GMT 49.260460 13.289337 41,000 112 455 0
2020-10-05 19:31:25 GMT 49.262882 13.280519 41,000 112 456 0
2020-10-05 19:31:22 GMT 49.265629 13.270328 41,000 112 456 0
2020-10-05 19:31:19 GMT 49.270386 13.252822 41,000 112 456 0
2020-10-05 19:31:16 GMT 49.270386 13.252822 41,000 112 456 0
2020-10-05 19:31:13 GMT 49.273029 13.242934 41,000 112 456 0
2020-10-05 19:31:07 GMT 49.277298 13.227257 41,000 112 456 0
2020-10-05 19:31:04 GMT 49.280136 13.216623 41,000 112 456 -64
2020-10-05 19:31:01 GMT 49.282654 13.207468 41,000 112 456 -64
2020-10-05 19:30:57 GMT 49.286297 13.194002 41,000 112 456 -64
2020-10-05 19:30:53 GMT 49.288578 13.185401 41,000 112 456 -64
2020-10-05 19:30:50 GMT 49.290581 13.178101 41,000 112 456 -64
2020-10-05 19:30:47 GMT 49.293365 13.167748 41,000 112 456 0
2020-10-05 19:30:44 GMT 49.295746 13.158875 41,000 112 456 0
2020-10-05 19:30:41 GMT 49.298218 13.149860 41,000 112 456 0
2020-10-05 19:30:38 GMT 49.301056 13.139367 41,000 112 456 0
2020-10-05 19:30:35 GMT 49.303707 13.129529 41,000 112 455 0
2020-10-05 19:30:32 GMT 49.306175 13.120495 41,000 112 456 64
2020-10-05 19:30:29 GMT 49.307667 13.114857 41,000 112 457 64
2020-10-05 19:30:26 GMT 49.310040 13.106111 41,000 112 457 64
2020-10-05 19:30:23 GMT 49.313416 13.093661 41,000 112 457 64
2020-10-05 19:30:20 GMT 49.315254 13.086741 41,000 112 457 0
2020-10-05 19:30:17 GMT 49.317581 13.078139 41,000 112 457 0
2020-10-05 19:30:14 GMT 49.323261 13.056962 41,000 112 457 0
2020-10-05 19:30:11 GMT 49.324493 13.052321 41,000 112 457 0
2020-10-05 19:30:05 GMT 49.327286 13.041969 41,000 112 457 0
2020-10-05 19:30:02 GMT 49.329666 13.033166 41,000 112 458 -64
2020-10-05 19:29:59 GMT 49.331818 13.025137 41,000 112 457 -64
2020-10-05 19:29:55 GMT 49.335388 13.011686 41,000 112 457 -64
2020-10-05 19:29:52 GMT 49.338318 13.000911 41,000 112 457 -64
2020-10-05 19:29:49 GMT 49.340012 12.994502 41,000 112 457 -64
2020-10-05 19:29:46 GMT 49.342300 12.985981 41,000 112 457 -64
2020-10-05 19:29:43 GMT 49.345001 12.975839 41,025 112 457 -64
2020-10-05 19:29:40 GMT 49.349899 12.957670 41,000 112 457 0
2020-10-05 19:29:37 GMT 49.352169 12.949122 41,000 112 457 0
2020-10-05 19:29:34 GMT 49.352169 12.949122 41,000 112 457 64
2020-10-05 19:29:31 GMT 49.354843 12.939148 41,000 112 457 64
2020-10-05 19:29:28 GMT 49.356903 12.931401 41,000 112 457 64
2020-10-05 19:29:25 GMT 49.360313 12.918549 41,000 112 457 0
2020-10-05 19:29:22 GMT 49.364273 12.903804 41,000 112 457 0
2020-10-05 19:29:16 GMT 49.368649 12.887469 41,000 112 458 0
2020-10-05 19:29:13 GMT 49.368649 12.887469 41,000 112 457 0
2020-10-05 19:29:10 GMT 49.371254 12.877711 41,000 112 457 0
2020-10-05 19:29:07 GMT 49.374187 12.866797 41,000 112 457 0
2020-10-05 19:29:04 GMT 49.376144 12.859280 41,000 112 457 0
2020-10-05 19:29:01 GMT 49.379105 12.848229 41,000 112 457 64
2020-10-05 19:28:58 GMT 49.383133 12.833088 41,000 112 458 -64
2020-10-05 19:28:55 GMT 49.383133 12.833088 41,000 112 457 0
2020-10-05 19:28:52 GMT 49.386292 12.821186 41,000 112 458 0
2020-10-05 19:28:49 GMT 49.388443 12.813157 41,000 112 457 -64
2020-10-05 19:28:46 GMT 49.390900 12.803987 41,000 112 457 -64
2020-10-05 19:28:43 GMT 49.393368 12.794591 41,000 112 457 0
2020-10-05 19:28:40 GMT 49.395584 12.786325 41,000 112 457 0
2020-10-05 19:28:37 GMT 49.398468 12.775480 41,000 112 457 64
2020-10-05 19:28:34 GMT 49.400024 12.769635 41,000 112 457 64
2020-10-05 19:28:31 GMT 49.402397 12.760692 41,000 112 458 64
2020-10-05 19:28:28 GMT 49.406891 12.743788 41,000 112 458 0
2020-10-05 19:28:25 GMT 49.409615 12.733588 41,000 112 458 64
2020-10-05 19:28:22 GMT 49.409615 12.733588 41,000 112 458 -64
2020-10-05 19:28:19 GMT 49.412594 12.722313 41,000 112 458 -64
2020-10-05 19:28:16 GMT 49.414410 12.715591 41,000 112 458 -64
2020-10-05 19:28:13 GMT 49.416733 12.706815 41,000 112 458 0
2020-10-05 19:28:10 GMT 49.419296 12.697160 41,000 112 458 64
2020-10-05 19:28:07 GMT 49.421532 12.688775 41,000 112 458 64
2020-10-05 19:28:04 GMT 49.423626 12.680897 41,000 112 458 64
2020-10-05 19:28:01 GMT 49.426231 12.670923 41,000 112 458 0
2020-10-05 19:27:58 GMT 49.429073 12.660333 41,000 112 458 0
2020-10-05 19:27:55 GMT 49.431168 12.652464 41,000 112 458 0
2020-10-05 19:27:52 GMT 49.433350 12.644179 41,000 112 458 -64
2020-10-05 19:27:49 GMT 49.436646 12.631748 41,000 112 458 0
2020-10-05 19:27:46 GMT 49.438889 12.623219 41,000 112 458 0
2020-10-05 19:27:43 GMT 49.440151 12.618466 41,000 112 458 0
2020-10-05 19:27:40 GMT 49.443054 12.607534 41,000 112 458 64
2020-10-05 19:27:37 GMT 49.445457 12.598498 41,000 112 458 64
2020-10-05 19:27:34 GMT 49.448578 12.586695 41,000 112 458 64
2020-10-05 19:27:31 GMT 49.452530 12.571756 41,000 112 458 0
2020-10-05 19:27:28 GMT 49.454910 12.562569 41,000 112 458 0
2020-10-05 19:27:25 GMT 49.454910 12.562569 41,000 111 458 0
2020-10-05 19:27:21 GMT 49.458847 12.547615 41,000 111 458 0
2020-10-05 19:27:18 GMT 49.461090 12.539159 41,000 111 458 0
2020-10-05 19:27:15 GMT 49.462738 12.532943 41,000 111 458 0
2020-10-05 19:27:12 GMT 49.465477 12.522484 41,000 111 458 -64
2020-10-05 19:27:09 GMT 49.468094 12.512416 41,000 111 458 -64
2020-10-05 19:27:06 GMT 49.472275 12.496577 41,000 111 458 -64
2020-10-05 19:27:00 GMT 49.476974 12.478613 41,000 111 458 0
2020-10-05 19:26:57 GMT 49.479256 12.469928 41,000 111 458 64
2020-10-05 19:26:54 GMT 49.482330 12.458199 41,000 111 458 64
2020-10-05 19:26:51 GMT 49.482330 12.458199 41,000 111 458 64
2020-10-05 19:26:48 GMT 49.484844 12.448697 41,000 111 458 0
2020-10-05 19:26:45 GMT 49.489471 12.431030 41,000 111 458 0
2020-10-05 19:26:42 GMT 49.489471 12.431030 41,000 111 458 -64
2020-10-05 19:26:39 GMT 49.491501 12.423236 41,000 111 458 -64
2020-10-05 19:26:36 GMT 49.493454 12.415924 41,000 111 458 0
2020-10-05 19:26:33 GMT 49.496574 12.404010 41,000 111 458 0
2020-10-05 19:26:30 GMT 49.498672 12.395831 41,000 111 458 0
2020-10-05 19:26:27 GMT 49.502747 12.380291 41,000 111 458 0
2020-10-05 19:26:21 GMT 49.505585 12.369521 41,000 111 457 0
2020-10-05 19:26:18 GMT 49.508423 12.358680 41,000 111 457 0
2020-10-05 19:26:15 GMT 49.510117 12.352174 41,000 111 457 0
2020-10-05 19:26:12 GMT 49.515846 12.330223 41,000 111 456 0
2020-10-05 19:26:09 GMT 49.515846 12.330223 41,000 111 457 64
2020-10-05 19:26:06 GMT 49.517197 12.325101 41,000 111 456 64
2020-10-05 19:26:03 GMT 49.519958 12.314662 41,000 111 456 64
2020-10-05 19:26:00 GMT 49.524261 12.298110 41,000 111 456 0
2020-10-05 19:25:54 GMT 49.526550 12.289437 41,000 111 456 -64
2020-10-05 19:25:51 GMT 49.529800 12.276933 41,000 111 456 -64
2020-10-05 19:25:48 GMT 49.533051 12.264428 41,000 111 456 -64
2020-10-05 19:25:45 GMT 49.533875 12.261176 41,000 111 456 -64
2020-10-05 19:25:42 GMT 49.536255 12.252141 41,000 111 456 -64
2020-10-05 19:25:39 GMT 49.538609 12.243075 41,000 111 456 0
2020-10-05 19:25:36 GMT 49.541199 12.233132 41,000 111 456 0
2020-10-05 19:25:32 GMT 49.546803 12.211452 41,000 111 456 0
2020-10-05 19:25:29 GMT 49.548805 12.203806 41,000 111 456 0
2020-10-05 19:25:26 GMT 49.548805 12.203806 41,000 111 456 0
2020-10-05 19:25:23 GMT 49.551224 12.194463 41,000 111 456 0
2020-10-05 19:25:20 GMT 49.553238 12.186801 41,000 111 456 0
2020-10-05 19:25:17 GMT 49.555984 12.176176 41,000 111 456 0
2020-10-05 19:25:14 GMT 49.557907 12.168804 41,000 111 456 0
2020-10-05 19:25:11 GMT 49.561050 12.156669 41,000 111 456 0
2020-10-05 19:25:08 GMT 49.565006 12.141377 41,000 111 456 0
2020-10-05 19:25:02 GMT 49.567379 12.132172 41,000 111 456 0
2020-10-05 19:24:59 GMT 49.569988 12.121928 41,000 111 456 0
2020-10-05 19:24:56 GMT 49.572510 12.112210 41,000 111 456 0
2020-10-05 19:24:53 GMT 49.575348 12.101368 41,000 111 456 0
2020-10-05 19:24:48 GMT 49.578926 12.087485 41,000 111 456 0
2020-10-05 19:24:44 GMT 49.581345 12.078132 41,000 111 457 0
2020-10-05 19:24:41 GMT 49.584274 12.066747 41,000 111 457 64
2020-10-05 19:24:38 GMT 49.586559 12.058015 41,000 111 457 64
2020-10-05 19:24:35 GMT 49.588669 12.049689 41,000 111 457 64
2020-10-05 19:24:32 GMT 49.590843 12.041164 41,000 111 457 0
2020-10-05 19:24:29 GMT 49.593109 12.032342 41,000 111 457 0
2020-10-05 19:24:26 GMT 49.596176 12.020344 41,000 111 457 0
2020-10-05 19:24:23 GMT 49.597500 12.015257 41,000 111 457 0
2020-10-05 19:24:20 GMT 49.599781 12.006349 41,000 111 456 0
2020-10-05 19:24:17 GMT 49.602245 11.996773 41,000 111 456 0
2020-10-05 19:24:14 GMT 49.604645 11.987313 41,000 111 457 0
2020-10-05 19:24:11 GMT 49.607510 11.976211 41,000 111 457 -64
2020-10-05 19:24:08 GMT 49.609695 11.967600 41,000 111 457 0
2020-10-05 19:24:05 GMT 49.611931 11.958915 41,000 111 457 0
2020-10-05 19:24:02 GMT 49.613800 11.951463 41,000 111 457 -64
2020-10-05 19:23:59 GMT 49.616447 11.941174 41,000 111 457 -64
2020-10-05 19:23:56 GMT 49.621719 11.920672 41,000 111 457 0
2020-10-05 19:23:53 GMT 49.621719 11.920672 41,000 111 457 0
2020-10-05 19:23:50 GMT 49.623383 11.914079 41,000 111 457 0
2020-10-05 19:23:47 GMT 49.626408 11.902128 41,000 111 457 0
2020-10-05 19:23:44 GMT 49.628677 11.893351 41,000 111 457 0
2020-10-05 19:23:41 GMT 49.629822 11.888869 41,000 111 457 0
2020-10-05 19:23:38 GMT 49.632385 11.878823 41,000 111 458 0
2020-10-05 19:23:35 GMT 49.635532 11.866348 41,000 111 458 0
2020-10-05 19:23:32 GMT 49.637161 11.859964 41,000 111 458 0
2020-10-05 19:23:29 GMT 49.639442 11.851130 41,000 111 458 0
2020-10-05 19:23:26 GMT 49.641769 11.842000 41,000 111 458 0
2020-10-05 19:23:23 GMT 49.644051 11.833018 41,000 111 458 0
2020-10-05 19:23:20 GMT 49.646301 11.824108 41,000 111 458 0
2020-10-05 19:23:17 GMT 49.648773 11.814567 41,000 111 458 0
2020-10-05 19:23:14 GMT 49.651688 11.803176 41,000 111 458 0
2020-10-05 19:23:11 GMT 49.653168 11.797293 41,000 111 458 0
2020-10-05 19:23:08 GMT 49.655876 11.786771 41,000 111 458 64
2020-10-05 19:23:05 GMT 49.658295 11.777418 41,000 111 458 64
2020-10-05 19:23:02 GMT 49.660156 11.769995 41,000 111 458 64
2020-10-05 19:22:59 GMT 49.663139 11.758415 41,000 111 458 0
2020-10-05 19:22:56 GMT 49.665115 11.750601 41,000 111 458 0
2020-10-05 19:22:53 GMT 49.667374 11.741712 41,000 111 458 -64
2020-10-05 19:22:50 GMT 49.670074 11.731171 41,000 111 458 -64
2020-10-05 19:22:47 GMT 49.671936 11.723785 41,000 111 458 0
2020-10-05 19:22:44 GMT 49.675049 11.711643 41,000 111 458 0
2020-10-05 19:22:41 GMT 49.676685 11.705116 41,000 111 459 64
2020-10-05 19:22:38 GMT 49.679291 11.694872 41,000 111 459 64
2020-10-05 19:22:35 GMT 49.681870 11.684755 41,000 111 459 0
2020-10-05 19:22:32 GMT 49.684204 11.675648 41,000 111 459 0
2020-10-05 19:22:29 GMT 49.685715 11.669577 41,000 111 459 0
2020-10-05 19:22:26 GMT 49.688370 11.659092 41,000 111 459 0
2020-10-05 19:22:23 GMT 49.690750 11.649700 41,000 111 459 0
2020-10-05 19:22:20 GMT 49.692745 11.641722 41,000 111 459 -64
2020-10-05 19:22:17 GMT 49.695190 11.632136 41,000 111 459 -64
2020-10-05 19:22:14 GMT 49.697727 11.622125 41,000 111 459 -64
2020-10-05 19:22:11 GMT 49.700317 11.611754 41,000 111 459 0
2020-10-05 19:22:08 GMT 49.702194 11.604381 41,000 111 459 0
2020-10-05 19:22:05 GMT 49.704300 11.596069 41,000 111 459 0
2020-10-05 19:22:02 GMT 49.707550 11.583276 41,000 111 459 -64
2020-10-05 19:21:59 GMT 49.709549 11.575136 41,025 111 459 -64
2020-10-05 19:21:56 GMT 49.711761 11.566435 41,000 111 459 0
2020-10-05 19:21:53 GMT 49.714485 11.555613 41,000 111 458 64
2020-10-05 19:21:50 GMT 49.715740 11.550639 41,000 111 459 64
2020-10-05 19:21:47 GMT 49.718903 11.538247 41,000 111 459 64
2020-10-05 19:21:44 GMT 49.721191 11.529139 41,000 111 459 64
2020-10-05 19:21:41 GMT 49.723515 11.519907 41,000 111 459 64
2020-10-05 19:21:37 GMT 49.726318 11.508829 41,000 111 459 64
2020-10-05 19:21:34 GMT 49.730637 11.491551 41,000 111 458 0
2020-10-05 19:21:31 GMT 49.730637 11.491551 41,000 111 458 0
2020-10-05 19:21:28 GMT 49.733200 11.481455 41,000 111 458 0
2020-10-05 19:21:25 GMT 49.735016 11.474063 41,000 111 458 0
2020-10-05 19:21:22 GMT 49.737621 11.463640 41,000 111 458 0
2020-10-05 19:21:19 GMT 49.740276 11.453099 41,000 111 459 0
2020-10-05 19:21:16 GMT 49.741951 11.446418 41,000 111 459 0
2020-10-05 19:21:13 GMT 49.744766 11.435105 41,000 111 459 0
2020-10-05 19:21:10 GMT 49.746281 11.429047 41,000 111 459 0
2020-10-05 19:21:07 GMT 49.749390 11.416602 41,000 111 459 0
2020-10-05 19:21:04 GMT 49.751026 11.410267 41,000 111 459 0
2020-10-05 19:21:01 GMT 49.753590 11.400023 41,000 111 459 0
2020-10-05 19:20:58 GMT 49.758362 11.380752 41,000 111 459 0
2020-10-05 19:20:55 GMT 49.758362 11.380752 41,000 111 459 0
2020-10-05 19:20:52 GMT 49.760788 11.371211 41,000 111 459 -64
2020-10-05 19:20:49 GMT 49.762760 11.363352 41,000 111 459 -64
2020-10-05 19:20:46 GMT 49.765041 11.354147 41,000 111 459 0
2020-10-05 19:20:43 GMT 49.767609 11.343890 41,000 111 459 0
2020-10-05 19:20:40 GMT 49.770081 11.334060 41,000 111 459 0
2020-10-05 19:20:36 GMT 49.773094 11.322079 41,000 111 459 0
2020-10-05 19:20:33 GMT 49.775143 11.313914 41,000 111 459 0
2020-10-05 19:20:30 GMT 49.776993 11.306449 41,000 111 459 0
2020-10-05 19:20:27 GMT 49.781662 11.287802 41,000 111 459 0
2020-10-05 19:20:24 GMT 49.784317 11.277177 41,000 110 459 0
2020-10-05 19:20:21 GMT 49.784317 11.277177 41,000 111 459 0
2020-10-05 19:20:18 GMT 49.785873 11.270816 41,000 110 460 0
2020-10-05 19:20:15 GMT 49.788528 11.260119 41,000 110 460 0
2020-10-05 19:20:12 GMT 49.793427 11.240459 41,000 110 460 64
2020-10-05 19:20:09 GMT 49.793427 11.240459 41,000 110 460 64
2020-10-05 19:20:06 GMT 49.795158 11.233446 41,000 110 460 64
2020-10-05 19:20:03 GMT 49.797859 11.222608 41,000 110 460 -64
2020-10-05 19:20:00 GMT 49.800201 11.212993 41,000 110 460 -64
2020-10-05 19:19:57 GMT 49.802902 11.202007 41,000 110 460 -64
2020-10-05 19:19:54 GMT 49.804413 11.195936 41,000 110 460 -64
2020-10-05 19:19:51 GMT 49.809311 11.176213 41,000 110 460 0
2020-10-05 19:19:48 GMT 49.809311 11.176213 41,000 110 460 0
2020-10-05 19:19:45 GMT 49.811966 11.165376 41,000 110 461 0
2020-10-05 19:19:42 GMT 49.814163 11.156544 41,000 110 461 0
2020-10-05 19:19:39 GMT 49.815689 11.150232 41,000 110 461 64
2020-10-05 19:19:36 GMT 49.820755 11.129801 41,000 110 461 0
2020-10-05 19:19:33 GMT 49.820755 11.129801 41,000 110 461 0
2020-10-05 19:19:30 GMT 49.823181 11.119826 41,000 110 461 0
2020-10-05 19:19:27 GMT 49.825058 11.112165 41,000 110 461 0
2020-10-05 19:19:24 GMT 49.827301 11.103202 41,000 110 461 0
2020-10-05 19:19:20 GMT 49.830681 11.089585 41,000 110 461 0
2020-10-05 19:19:17 GMT 49.832542 11.082013 41,000 110 461 0
2020-10-05 19:19:14 GMT 49.835403 11.070460 41,000 110 461 0
2020-10-05 19:19:11 GMT 49.837616 11.061451 41,000 110 461 0
2020-10-05 19:19:08 GMT 49.839382 11.054250 41,000 110 461 64
2020-10-05 19:19:05 GMT 49.841526 11.045639 41,000 110 461 64
2020-10-05 19:19:02 GMT 49.843899 11.035841 41,000 110 462 0
2020-10-05 19:18:59 GMT 49.849228 11.014300 41,000 110 462 -64
2020-10-05 19:18:56 GMT 49.849228 11.014300 41,000 110 462 0
2020-10-05 19:18:53 GMT 49.850742 11.008004 41,000 110 462 0
2020-10-05 19:18:50 GMT 49.853024 10.998651 41,000 110 463 0
2020-10-05 19:18:47 GMT 49.855408 10.989002 41,000 110 463 0
2020-10-05 19:18:44 GMT 49.858097 10.977866 41,000 110 463 0
2020-10-05 19:18:41 GMT 49.860397 10.968548 41,000 110 463 -64
2020-10-05 19:18:38 GMT 49.862183 10.961247 41,000 110 463 -64
2020-10-05 19:18:35 GMT 49.864151 10.953080 41,000 110 463 0
2020-10-05 19:18:32 GMT 49.866989 10.941566 41,000 110 463 0
2020-10-05 19:18:29 GMT 49.869141 10.932697 41,000 110 463 0
2020-10-05 19:18:26 GMT 49.873123 10.916507 41,000 110 463 64
2020-10-05 19:18:20 GMT 49.876068 10.904450 41,000 110 463 0
2020-10-05 19:18:17 GMT 49.878296 10.895257 41,000 110 463 -64
2020-10-05 19:18:14 GMT 49.880264 10.887307 41,000 110 463 -64
2020-10-05 19:18:11 GMT 49.882866 10.876613 41,000 110 463 -64
2020-10-05 19:18:08 GMT 49.884865 10.868448 41,000 110 463 0
2020-10-05 19:18:05 GMT 49.887222 10.858684 41,000 110 463 0
2020-10-05 19:18:02 GMT 49.889557 10.849288 41,000 110 463 64
2020-10-05 19:17:59 GMT 49.891388 10.841771 41,000 110 463 64
2020-10-05 19:17:56 GMT 49.893944 10.831183 41,000 110 463 0
2020-10-05 19:17:53 GMT 49.898830 10.811215 41,000 110 463 -64
2020-10-05 19:17:50 GMT 49.898830 10.811215 41,000 110 463 -64
2020-10-05 19:17:47 GMT 49.901066 10.802010 41,000 110 463 0
2020-10-05 19:17:44 GMT 49.902969 10.794212 41,000 110 463 0
2020-10-05 19:17:41 GMT 49.904652 10.787387 41,000 110 463 0
2020-10-05 19:17:38 GMT 49.909424 10.767758 41,000 110 463 0
2020-10-05 19:17:32 GMT 49.912376 10.755689 41,000 110 463 -64
2020-10-05 19:17:29 GMT 49.914288 10.747821 41,000 110 464 0
2020-10-05 19:17:26 GMT 49.916519 10.738616 41,000 110 464 0
2020-10-05 19:17:23 GMT 49.919128 10.727927 41,000 110 464 0
2020-10-05 19:17:20 GMT 49.921410 10.718722 41,000 110 464 -64
2020-10-05 19:17:17 GMT 49.923340 10.710803 41,000 110 464 -64
2020-10-05 19:17:14 GMT 49.928345 10.690365 41,000 110 464 64
2020-10-05 19:17:11 GMT 49.928345 10.690365 41,000 110 464 64
2020-10-05 19:17:08 GMT 49.930721 10.680715 41,000 110 464 0
2020-10-05 19:17:05 GMT 49.933002 10.671288 41,000 110 464 0
2020-10-05 19:17:02 GMT 49.934692 10.664328 41,000 110 464 -64
2020-10-05 19:16:59 GMT 49.937328 10.653546 41,000 110 464 64
2020-10-05 19:16:56 GMT 49.939911 10.642933 41,000 110 464 -64
2020-10-05 19:16:53 GMT 49.942310 10.633133 41,000 110 464 64
2020-10-05 19:16:50 GMT 49.944080 10.625784 41,000 110 464 64
2020-10-05 19:16:47 GMT 49.946037 10.617915 41,000 110 465 128
2020-10-05 19:16:44 GMT 49.948410 10.607968 41,000 110 464 0
2020-10-05 19:16:41 GMT 49.950737 10.598540 41,000 110 465 64
2020-10-05 19:16:38 GMT 49.953003 10.589158 41,000 110 465 64
2020-10-05 19:16:35 GMT 49.955246 10.579979 41,000 110 465 64
2020-10-05 19:16:32 GMT 49.961151 10.555548 41,000 110 466 0
2020-10-05 19:16:28 GMT 49.961151 10.555548 41,000 110 465 0
2020-10-05 19:16:25 GMT 49.963261 10.546875 41,000 110 466 0
2020-10-05 19:16:22 GMT 49.967682 10.528465 41,000 110 465 -64
2020-10-05 19:16:19 GMT 49.970104 10.518370 41,000 110 465 -64
2020-10-05 19:16:16 GMT 49.970104 10.518370 41,000 110 465 -64
2020-10-05 19:16:13 GMT 49.972244 10.509536 41,000 110 465 0
2020-10-05 19:16:10 GMT 49.974838 10.498882 41,000 110 465 0
2020-10-05 19:16:07 GMT 49.976013 10.493873 41,000 110 465 64
2020-10-05 19:16:04 GMT 49.981659 10.470477 41,000 110 465 0
2020-10-05 19:16:01 GMT 49.981659 10.470477 41,000 110 465 0
2020-10-05 19:15:58 GMT 49.982849 10.465634 41,000 110 465 0
2020-10-05 19:15:55 GMT 49.985744 10.453491 41,000 110 465 0
2020-10-05 19:15:52 GMT 49.987610 10.445830 41,000 110 466 0
2020-10-05 19:15:49 GMT 49.989887 10.436344 41,000 110 466 0
2020-10-05 19:15:46 GMT 49.992554 10.425158 41,000 110 465 0
2020-10-05 19:15:43 GMT 49.996490 10.408606 41,000 110 465 64
2020-10-05 19:15:40 GMT 49.996490 10.408606 41,000 110 465 0
2020-10-05 19:15:37 GMT 49.999477 10.396184 41,000 110 465 0
2020-10-05 19:15:34 GMT 50.001152 10.389132 41,000 110 465 0
2020-10-05 19:15:31 GMT 50.003433 10.379630 41,000 110 465 0
2020-10-05 19:15:28 GMT 50.007980 10.360613 41,000 110 465 0
2020-10-05 19:15:25 GMT 50.007980 10.360613 41,000 110 465 0
2020-10-05 19:15:22 GMT 50.010178 10.351362 41,000 110 465 0
2020-10-05 19:15:19 GMT 50.012421 10.341966 41,000 110 465 0
2020-10-05 19:15:16 GMT 50.014748 10.332196 41,000 110 465 0
2020-10-05 19:15:13 GMT 50.016563 10.324476 41,000 110 465 0
2020-10-05 19:15:10 GMT 50.019680 10.311485 41,000 110 465 0
2020-10-05 19:15:07 GMT 50.021530 10.303730 41,000 110 465 0
2020-10-05 19:15:04 GMT 50.023403 10.295823 41,000 110 466 0
2020-10-05 19:15:01 GMT 50.026016 10.284866 41,000 110 466 0
2020-10-05 19:14:58 GMT 50.027920 10.276819 41,000 110 466 0
2020-10-05 19:14:55 GMT 50.030045 10.267880 41,000 110 466 0
2020-10-05 19:14:52 GMT 50.032761 10.256628 41,000 110 466 -64
2020-10-05 19:14:49 GMT 50.034851 10.247787 41,000 110 465 0
2020-10-05 19:14:46 GMT 50.037605 10.236214 41,000 110 466 64
2020-10-05 19:14:43 GMT 50.039017 10.230151 41,000 110 466 64
2020-10-05 19:14:40 GMT 50.041187 10.220997 41,000 110 466 0
2020-10-05 19:14:37 GMT 50.044121 10.208674 41,000 110 466 0
2020-10-05 19:14:34 GMT 50.045746 10.201890 41,000 110 466 0
2020-10-05 19:14:31 GMT 50.048355 10.190831 41,000 110 466 0
2020-10-05 19:14:28 GMT 50.050095 10.183387 41,000 110 465 0
2020-10-05 19:14:25 GMT 50.052639 10.172598 41,000 110 467 64
2020-10-05 19:14:22 GMT 50.054443 10.164956 41,000 110 467 64
2020-10-05 19:14:19 GMT 50.059345 10.144018 41,000 110 467 64
2020-10-05 19:14:16 GMT 50.059345 10.144018 41,000 110 467 0
2020-10-05 19:14:13 GMT 50.060787 10.137857 41,000 110 467 -64
2020-10-05 19:14:10 GMT 50.064240 10.123251 41,000 110 467 -64
2020-10-05 19:14:07 GMT 50.066391 10.113999 41,000 109 468 0
2020-10-05 19:14:04 GMT 50.068607 10.104601 41,000 109 468 0
2020-10-05 19:14:01 GMT 50.072388 10.088413 41,000 109 468 64
2020-10-05 19:13:58 GMT 50.072388 10.088413 41,000 109 468 -64
2020-10-05 19:13:55 GMT 50.074173 10.080607 41,000 109 468 0
2020-10-05 19:13:52 GMT 50.076691 10.069982 41,000 109 468 0
2020-10-05 19:13:49 GMT 50.079575 10.057477 41,000 109 468 0
2020-10-05 19:13:46 GMT 50.081406 10.049744 41,000 109 468 0
2020-10-05 19:13:43 GMT 50.083549 10.040539 41,000 109 468 0
2020-10-05 19:13:40 GMT 50.088764 10.018344 41,000 109 468 0
2020-10-05 19:13:37 GMT 50.088764 10.018344 41,000 109 468 0
2020-10-05 19:13:34 GMT 50.092072 10.004239 41,000 109 468 0
2020-10-05 19:13:31 GMT 50.092072 10.004239 41,000 110 467 0
2020-10-05 19:13:28 GMT 50.095375 9.990135 41,000 110 467 0
2020-10-05 19:13:25 GMT 50.096867 9.983826 41,000 110 467 0
2020-10-05 19:13:22 GMT 50.099396 9.973128 41,000 110 467 64
2020-10-05 19:13:19 GMT 50.101273 9.965106 41,000 110 467 64
2020-10-05 19:13:16 GMT 50.103336 9.956360 41,000 110 467 64
2020-10-05 19:13:13 GMT 50.105572 9.946784 41,000 110 467 64
2020-10-05 19:13:10 GMT 50.107864 9.937062 41,000 110 467 64
2020-10-05 19:13:07 GMT 50.110085 9.927558 41,000 110 467 64
2020-10-05 19:13:04 GMT 50.111847 9.920148 41,000 110 467 64
2020-10-05 19:13:01 GMT 50.115067 9.906402 41,000 110 467 0
2020-10-05 19:12:57 GMT 50.117767 9.894970 41,000 110 467 0
2020-10-05 19:12:54 GMT 50.120327 9.884058 41,000 110 467 0
2020-10-05 19:12:51 GMT 50.121769 9.877971 41,000 110 467 0
2020-10-05 19:12:48 GMT 50.126427 9.858003 41,000 110 468 -64
2020-10-05 19:12:45 GMT 50.126427 9.858003 41,000 110 468 0
2020-10-05 19:12:42 GMT 50.128418 9.849677 41,000 110 468 -64
2020-10-05 19:12:39 GMT 50.131546 9.836178 41,000 109 468 0
2020-10-05 19:12:36 GMT 50.133362 9.828572 41,000 109 468 64
2020-10-05 19:12:33 GMT 50.135223 9.820590 41,000 109 468 64
2020-10-05 19:12:30 GMT 50.137344 9.811442 41,000 109 469 0
2020-10-05 19:12:27 GMT 50.139587 9.801901 41,000 109 468 0
2020-10-05 19:12:24 GMT 50.141975 9.791713 41,000 109 469 0
2020-10-05 19:12:21 GMT 50.144207 9.782063 41,000 109 469 0
2020-10-05 19:12:18 GMT 50.146362 9.772773 41,000 109 469 0
2020-10-05 19:12:15 GMT 50.148285 9.764605 41,000 109 469 0
2020-10-05 19:12:12 GMT 50.150585 9.754746 40,875 109 470 0
2020-10-05 19:12:09 GMT 50.155659 9.732773 41,000 109 470 -64
2020-10-05 19:12:06 GMT 50.155659 9.732773 41,000 109 469 -64
2020-10-05 19:12:03 GMT 50.158173 9.721961 41,000 109 469 -64
2020-10-05 19:12:00 GMT 50.159664 9.715329 40,175 109 470 128
2020-10-05 19:11:57 GMT 50.161926 9.705626 41,000 109 470 0
2020-10-05 19:11:54 GMT 50.163849 9.697314 41,000 109 470 0
2020-10-05 19:11:51 GMT 50.166599 9.685413 41,000 109 470 128
2020-10-05 19:11:48 GMT 50.168839 9.675630 41,000 109 470 192
2020-10-05 19:11:45 GMT 50.170670 9.667535 41,000 109 470 448
2020-10-05 19:11:42 GMT 50.172836 9.658022 40,950 109 469 1024
2020-10-05 19:11:39 GMT 50.175201 9.647731 40,800 109 469 1280
2020-10-05 19:11:36 GMT 50.176888 9.640280 40,850 110 470 1088
2020-10-05 19:11:33 GMT 50.179169 9.630185 40,750 109 470 1152
2020-10-05 19:11:30 GMT 50.181793 9.618819 40,375 118 473 1472
2020-10-05 19:11:27 GMT 50.183731 9.610736 40,650 111 470 1088
2020-10-05 19:11:24 GMT 50.186710 9.599378 40,525 114 470 1344
2020-10-05 19:11:21 GMT 50.188751 9.591787 40,450 114 471 1472
2020-10-05 19:11:18 GMT 50.192204 9.579781 40,450 115 471 1536
2020-10-05 19:11:15 GMT 50.194519 9.572127 40,400 115 472 1600
2020-10-05 19:11:12 GMT 50.200676 9.553206 40,225 118 473 1472
2020-10-05 19:11:09 GMT 50.200676 9.553206 40,075 118 473 1408
2020-10-05 19:11:06 GMT 50.204224 9.543216 40,125 120 473 1408
2020-10-05 19:11:03 GMT 50.206009 9.538229 40,100 120 474 1408
2020-10-05 19:11:00 GMT 50.209717 9.528471 39,975 121 474 1536
2020-10-05 19:10:57 GMT 50.213665 9.518540 39,950 122 474 1536
2020-10-05 19:10:54 GMT 50.220016 9.503680 39,775 124 474 1664
2020-10-05 19:10:48 GMT 50.225510 9.491537 39,550 128 476 1472
2020-10-05 19:10:45 GMT 50.228348 9.485682 39,550 128 476 1472
2020-10-05 19:10:42 GMT 50.232468 9.477443 39,525 129 476 1536
2020-10-05 19:10:39 GMT 50.236176 9.470432 39,475 129 476 1600
2020-10-05 19:10:36 GMT 50.240524 9.462192 39,375 129 476 1600
2020-10-05 19:10:33 GMT 50.245422 9.452868 39,250 129 478 1728
2020-10-05 19:10:30 GMT 50.248901 9.446291 39,175 129 478 1792
2020-10-05 19:10:27 GMT 50.253422 9.437775 38,750 129 481 1536
2020-10-05 19:10:24 GMT 50.257919 9.429233 39,000 129 480 2048
2020-10-05 19:10:21 GMT 50.262825 9.419886 38,925 129 481 1920
2020-10-05 19:10:18 GMT 50.266159 9.413549 38,725 129 481 1792
2020-10-05 19:10:15 GMT 50.270737 9.404875 38,325 129 484 2432
2020-10-05 19:10:12 GMT 50.275406 9.395985 38,200 129 484 2432
2020-10-05 19:10:09 GMT 50.279720 9.387817 38,550 129 483 2496
2020-10-05 19:10:06 GMT 50.282608 9.382324 38,400 129 486 2112
2020-10-05 19:10:03 GMT 50.288406 9.371266 38,250 129 486 1728
2020-10-05 19:10:00 GMT 50.291035 9.366290 38,200 129 487 1664
2020-10-05 19:09:57 GMT 50.296062 9.356714 38,100 129 487 1408
2020-10-05 19:09:54 GMT 50.299973 9.349217 38,050 129 487 1472
2020-10-05 19:09:51 GMT 50.304115 9.341348 38,000 129 487 1472
2020-10-05 19:09:48 GMT 50.312447 9.325463 37,825 129 487 1728
2020-10-05 19:09:42 GMT 50.318161 9.314672 37,725 129 487 1664
2020-10-05 19:09:39 GMT 50.320641 9.309874 37,650 129 488 1600
2020-10-05 19:09:36 GMT 50.325714 9.300149 37,550 129 488 1536
2020-10-05 19:09:33 GMT 50.328789 9.294359 37,450 129 488 1600
2020-10-05 19:09:30 GMT 50.340008 9.272981 37,325 129 488 1728
2020-10-05 19:09:27 GMT 50.340008 9.272981 37,300 129 488 1728
2020-10-05 19:09:24 GMT 50.342514 9.268124 37,200 129 488 1728
2020-10-05 19:09:21 GMT 50.347000 9.259595 37,100 129 488 1792
2020-10-05 19:09:18 GMT 50.352947 9.248187 37,025 129 488 1792
2020-10-05 19:09:15 GMT 50.360458 9.233937 36,950 129 488 1600
2020-10-05 19:09:09 GMT 50.368607 9.218324 36,775 129 488 1536
2020-10-05 19:09:06 GMT 50.368607 9.218324 36,750 129 488 1536
2020-10-05 19:09:03 GMT 50.372223 9.211458 36,625 129 488 1216
2020-10-05 19:09:00 GMT 50.377075 9.202206 36,600 129 488 1088
2020-10-05 19:08:57 GMT 50.380966 9.194689 36,550 129 487 1536
2020-10-05 19:08:54 GMT 50.386322 9.184426 36,475 129 487 1536
2020-10-05 19:08:51 GMT 50.389168 9.179003 36,425 129 487 1664
2020-10-05 19:08:48 GMT 50.398663 9.160742 36,200 129 487 1664
2020-10-05 19:08:45 GMT 50.398663 9.160742 36,250 129 487 1792
2020-10-05 19:08:42 GMT 50.404343 9.149904 36,100 129 486 2048
2020-10-05 19:08:39 GMT 50.407696 9.143372 36,050 129 487 2112
2020-10-05 19:08:36 GMT 50.412643 9.133831 35,950 129 488 2048
2020-10-05 19:08:33 GMT 50.419601 9.120532 35,650 129 489 2304
2020-10-05 19:08:30 GMT 50.423676 9.112653 35,700 129 489 2240
2020-10-05 19:08:27 GMT 50.428391 9.103546 35,550 129 489 2304
2020-10-05 19:08:24 GMT 50.428391 9.103546 35,475 129 489 2368
2020-10-05 19:08:21 GMT 50.432693 9.095344 35,425 129 492 2048
2020-10-05 19:08:18 GMT 50.437042 9.086850 35,175 129 492 2240
2020-10-05 19:08:15 GMT 50.440659 9.079911 35,150 129 492 2112
2020-10-05 19:08:12 GMT 50.450615 9.060826 35,025 129 492 1792
2020-10-05 19:08:09 GMT 50.450615 9.060826 34,950 129 492 704
2020-10-05 19:08:06 GMT 50.455124 9.052156 34,925 129 491 384
2020-10-05 19:08:03 GMT 50.459427 9.043844 34,900 129 491 384
2020-10-05 19:08:00 GMT 50.463318 9.036399 34,875 129 492 512
2020-10-05 19:07:57 GMT 50.467209 9.028882 34,850 129 493 448
2020-10-05 19:07:54 GMT 50.470779 9.022016 34,825 129 493 448
2020-10-05 19:07:51 GMT 50.475101 9.013763 34,800 129 493 384
2020-10-05 19:07:48 GMT 50.480988 9.002429 34,800 129 493 384
2020-10-05 19:07:45 GMT 50.484039 8.996541 34,775 129 493 384
2020-10-05 19:07:42 GMT 50.489208 8.986594 34,750 129 493 448
2020-10-05 19:07:39 GMT 50.493351 8.978651 34,675 129 495 448
2020-10-05 19:07:33 GMT 50.502148 8.961726 34,600 129 498 512
2020-10-05 19:07:30 GMT 50.507038 8.952224 34,625 129 498 512
2020-10-05 19:07:27 GMT 50.510742 8.945112 34,625 129 499 448
2020-10-05 19:07:24 GMT 50.515602 8.935745 34,600 129 498 448
2020-10-05 19:07:21 GMT 50.518570 8.930078 34,575 129 500 448
2020-10-05 19:07:18 GMT 50.524933 8.917790 34,550 129 500 448
2020-10-05 19:07:15 GMT 50.527267 8.913237 34,500 129 501 384
2020-10-05 19:07:12 GMT 50.532990 8.902178 34,500 129 501 384
2020-10-05 19:07:09 GMT 50.536503 8.895437 34,500 129 501 384
2020-10-05 19:07:06 GMT 50.541206 8.886381 34,475 129 501 384
2020-10-05 19:07:03 GMT 50.550705 8.868063 34,425 129 501 320
2020-10-05 19:07:00 GMT 50.550705 8.868063 34,425 129 501 320
2020-10-05 19:06:57 GMT 50.554893 8.859954 34,400 129 501 320
2020-10-05 19:06:54 GMT 50.558571 8.852828 34,400 129 501 384
2020-10-05 19:06:51 GMT 50.562469 8.845367 34,350 128 500 512
2020-10-05 19:06:48 GMT 50.568531 8.833527 34,350 128 500 768
2020-10-05 19:06:45 GMT 50.576168 8.818681 34,225 128 499 1664
2020-10-05 19:06:42 GMT 50.576168 8.818681 34,175 128 499 1856
2020-10-05 19:06:39 GMT 50.579659 8.812000 33,950 128 499 1984
2020-10-05 19:06:36 GMT 50.583988 8.803612 31,100 128 500 2496
2020-10-05 19:06:33 GMT 50.588882 8.794050 33,900 128 499 2496
2020-10-05 19:06:30 GMT 50.593159 8.785722 33,550 128 501 2496
2020-10-05 19:06:27 GMT 50.597397 8.777498 33,550 128 501 2496
2020-10-05 19:06:24 GMT 50.602432 8.767740 33,475 128 501 2496
2020-10-05 19:06:20 GMT 50.608200 8.756465 33,300 128 502 2496
2020-10-05 19:06:17 GMT 50.612709 8.747715 33,175 128 502 2432
2020-10-05 19:06:14 GMT 50.616074 8.741214 33,150 128 502 2432
2020-10-05 19:06:11 GMT 50.625931 8.722031 32,900 128 504 2368
2020-10-05 19:06:08 GMT 50.625931 8.722031 32,825 128 504 2304
2020-10-05 19:06:05 GMT 50.634888 8.704569 32,675 128 504 2304
2020-10-05 19:06:02 GMT 50.634888 8.704569 32,575 128 504 2240
2020-10-05 19:05:59 GMT 50.639805 8.695011 32,500 128 504 2112
2020-10-05 19:05:56 GMT 50.642784 8.689146 32,225 128 504 1920
2020-10-05 19:05:53 GMT 50.646881 8.681151 32,325 128 504 1920
2020-10-05 19:05:50 GMT 50.657681 8.659973 32,075 128 504 2048
2020-10-05 19:05:47 GMT 50.657681 8.659973 31,975 128 504 2112
2020-10-05 19:05:44 GMT 50.660980 8.653613 31,975 128 504 2240
2020-10-05 19:05:41 GMT 50.666245 8.643205 31,825 128 505 2496
2020-10-05 19:05:38 GMT 50.669174 8.637495 31,750 128 505 2304
2020-10-05 19:05:35 GMT 50.673649 8.628769 31,675 128 505 2304
2020-10-05 19:05:32 GMT 50.679428 8.617438 31,475 128 505 2688
2020-10-05 19:05:29 GMT 50.682861 8.610609 31,125 128 507 2560
2020-10-05 19:05:26 GMT 50.691330 8.594055 31,150 128 507 2624
2020-10-05 19:05:23 GMT 50.691330 8.594055 30,975 128 507 2560
2020-10-05 19:05:20 GMT 50.694855 8.587152 30,950 128 507 2560
2020-10-05 19:05:17 GMT 50.699158 8.578644 30,875 128 507 2560
2020-10-05 19:05:14 GMT 50.704651 8.567810 30,725 128 508 2432
2020-10-05 19:05:11 GMT 50.708424 8.560410 30,650 128 508 2432
2020-10-05 19:05:08 GMT 50.717102 8.543281 30,025 128 508 2240
2020-10-05 19:05:05 GMT 50.722759 8.532104 30,200 128 508 2496
2020-10-05 19:05:02 GMT 50.722759 8.532104 30,225 128 509 2560
2020-10-05 19:04:59 GMT 50.726810 8.524170 29,925 128 509 2560
2020-10-05 19:04:56 GMT 50.731888 8.514107 29,975 128 509 2432
2020-10-05 19:04:53 GMT 50.734909 8.508169 29,900 128 508 2304
2020-10-05 19:04:50 GMT 50.740078 8.497925 29,750 128 508 2368
2020-10-05 19:04:47 GMT 50.744545 8.489151 29,650 128 508 2432
2020-10-05 19:04:44 GMT 50.749481 8.479309 29,475 128 508 2560
2020-10-05 19:04:41 GMT 50.752304 8.473725 29,375 128 508 2496
2020-10-05 19:04:38 GMT 50.757534 8.463364 29,250 128 508 2496
2020-10-05 19:04:35 GMT 50.760609 8.457260 28,425 128 509 2368
2020-10-05 19:04:32 GMT 50.770012 8.438644 28,925 128 509 2624
2020-10-05 19:04:29 GMT 50.770012 8.438644 28,850 128 509 2688
2020-10-05 19:04:26 GMT 50.775455 8.427811 28,650 128 509 2752
2020-10-05 19:04:23 GMT 50.778576 8.421631 28,350 128 509 2752
2020-10-05 19:04:20 GMT 50.784805 8.409218 28,450 128 510 2752
2020-10-05 19:04:17 GMT 50.792633 8.393703 28,325 128 510 2752
2020-10-05 19:04:14 GMT 50.792633 8.393703 28,200 128 511 2496
2020-10-05 19:04:11 GMT 50.796497 8.385925 28,025 128 511 2688
2020-10-05 19:04:08 GMT 50.802273 8.374405 27,875 128 511 2560
2020-10-05 19:04:05 GMT 50.805485 8.368073 27,225 128 504 0
2020-10-05 19:04:02 GMT 50.809113 8.360825 27,600 128 510 2624
2020-10-05 19:03:59 GMT 50.813965 8.351168 27,625 128 510 2560
2020-10-05 19:03:56 GMT 50.818981 8.341141 27,525 128 510 2688
2020-10-05 19:03:53 GMT 50.823219 8.332748 27,250 128 510 2560
2020-10-05 19:03:50 GMT 50.827549 8.324127 27,175 128 510 2496
2020-10-05 19:03:47 GMT 50.831181 8.316879 27,075 128 510 2496
2020-10-05 19:03:44 GMT 50.836624 8.305969 26,925 128 510 2368
2020-10-05 19:03:40 GMT 50.842213 8.294830 26,775 128 509 2240
2020-10-05 19:03:37 GMT 50.846924 8.285547 26,600 128 509 2176
2020-10-05 19:03:34 GMT 50.850815 8.277753 26,550 128 508 2112
2020-10-05 19:03:31 GMT 50.855991 8.267441 26,500 128 508 1920
2020-10-05 19:03:28 GMT 50.863678 8.252217 26,275 128 506 1600
2020-10-05 19:03:22 GMT 50.868988 8.241676 26,200 128 503 1472
2020-10-05 19:03:19 GMT 50.872749 8.234100 26,100 128 501 1408
2020-10-05 19:03:15 GMT 50.878525 8.222580 26,000 129 498 1216
2020-10-05 19:03:12 GMT 50.882526 8.214722 25,975 129 498 1216
2020-10-05 19:03:09 GMT 50.886978 8.206193 25,925 131 494 1152
2020-10-05 19:03:06 GMT 50.892071 8.196945 25,850 132 492 1280
2020-10-05 19:03:03 GMT 50.897655 8.187256 25,700 133 490 1408
2020-10-05 19:03:00 GMT 50.900894 8.181845 25,725 133 490 1472
2020-10-05 19:02:57 GMT 50.906036 8.173523 25,600 135 485 1728
2020-10-05 19:02:54 GMT 50.911671 8.164825 25,525 136 484 1728
2020-10-05 19:02:51 GMT 50.914856 8.160095 25,500 137 484 1792
2020-10-05 19:02:48 GMT 50.920441 8.152078 25,375 139 479 1536
2020-10-05 19:02:45 GMT 50.924984 8.145828 25,325 140 478 1472
2020-10-05 19:02:42 GMT 50.931129 8.137741 25,225 141 475 1600
2020-10-05 19:02:39 GMT 50.936279 8.131293 24,875 146 469 1600
2020-10-05 19:02:36 GMT 50.941040 8.125503 25,050 144 470 1920
2020-10-05 19:02:33 GMT 50.946487 8.119268 25,000 144 470 1920
2020-10-05 19:02:30 GMT 50.951889 8.113251 24,925 146 467 1536
2020-10-05 19:02:27 GMT 50.955196 8.109818 24,825 146 466 1472
2020-10-05 19:02:24 GMT 50.961945 8.102951 24,725 147 463 1856
2020-10-05 19:02:21 GMT 50.969147 8.095662 24,600 147 461 2176
2020-10-05 19:02:18 GMT 50.973446 8.091431 24,350 147 455 1920
2020-10-05 19:02:15 GMT 50.977539 8.087234 24,450 147 459 1856
2020-10-05 19:02:12 GMT 50.983265 8.081512 24,400 147 458 1792
2020-10-05 19:02:09 GMT 50.989784 8.074951 24,275 147 455 1856
2020-10-05 19:02:06 GMT 50.996021 8.068695 24,100 147 454 2240
2020-10-05 19:02:03 GMT 51.005379 8.059311 23,975 147 453 2432
2020-10-05 19:02:00 GMT 51.005379 8.059311 23,900 147 452 2432
2020-10-05 19:01:57 GMT 51.011673 8.052979 23,800 147 452 2496
2020-10-05 19:01:54 GMT 51.016319 8.048325 23,625 147 451 2624
2020-10-05 19:01:51 GMT 51.021927 8.042660 23,550 147 450 2624
2020-10-05 19:01:48 GMT 51.024490 8.040062 23,450 147 450 2496
2020-10-05 19:01:45 GMT 51.030487 8.033975 23,250 147 448 2432
2020-10-05 19:01:42 GMT 51.037582 8.026775 23,200 147 447 2560
2020-10-05 19:01:39 GMT 51.047012 8.017199 22,925 147 446 2816
2020-10-05 19:01:36 GMT 51.047012 8.017199 22,850 147 444 2624
2020-10-05 19:01:33 GMT 51.052734 8.011260 22,675 147 445 2688
2020-10-05 19:01:30 GMT 51.056534 8.007400 22,200 147 443 2944
2020-10-05 19:01:27 GMT 51.062683 8.001099 22,500 147 443 2688
2020-10-05 19:01:24 GMT 51.074524 7.988916 22,125 147 441 2880
2020-10-05 19:01:21 GMT 51.074524 7.988916 21,950 147 441 2880
2020-10-05 19:01:18 GMT 51.078827 7.984537 22,025 147 440 2752
2020-10-05 19:01:15 GMT 51.083168 7.980042 21,950 147 440 2624
2020-10-05 19:01:12 GMT 51.087963 7.975082 21,775 147 439 2624
2020-10-05 19:01:09 GMT 51.094711 7.968131 21,650 147 438 2688
2020-10-05 19:01:06 GMT 51.099655 7.963158 21,450 147 436 3136
2020-10-05 19:01:03 GMT 51.104645 7.958036 21,200 147 436 3072
2020-10-05 19:01:00 GMT 51.115173 7.947272 21,075 147 434 2944
2020-10-05 19:00:57 GMT 51.115173 7.947272 20,450 149 429 3008
2020-10-05 19:00:54 GMT 51.118607 7.943709 20,900 147 433 2944
2020-10-05 19:00:51 GMT 51.124786 7.937399 20,350 147 433 3072
2020-10-05 19:00:48 GMT 51.129593 7.932426 20,550 147 432 3072
2020-10-05 19:00:45 GMT 51.138237 7.923965 20,375 150 430 3008
2020-10-05 19:00:39 GMT 51.145409 7.917786 20,075 154 425 2944
2020-10-05 19:00:36 GMT 51.149231 7.914833 19,925 155 424 2880
2020-10-05 19:00:33 GMT 51.156509 7.909711 19,825 157 423 2752
2020-10-05 19:00:30 GMT 51.162258 7.906113 19,775 158 421 2752
2020-10-05 19:00:27 GMT 51.164978 7.904589 19,300 164 415 3200
2020-10-05 19:00:24 GMT 51.171104 7.901382 19,400 164 415 3200
2020-10-05 19:00:21 GMT 51.176651 7.898873 19,275 165 414 3328
2020-10-05 19:00:18 GMT 51.182281 7.896646 19,075 167 412 3648
2020-10-05 19:00:15 GMT 51.193821 7.893143 18,750 171 410 4160
2020-10-05 19:00:12 GMT 51.198349 7.892044 18,450 173 410 4544
2020-10-05 19:00:09 GMT 51.204205 7.890930 17,950 175 410 4416
2020-10-05 19:00:06 GMT 51.204205 7.890930 18,225 176 410 4224
2020-10-05 19:00:03 GMT 51.210999 7.890167 18,075 177 410 3648
2020-10-05 19:00:00 GMT 51.217751 7.889938 17,875 178 408 1984
2020-10-05 18:59:57 GMT 51.226128 7.889633 17,800 179 405 960
2020-10-05 18:59:51 GMT 51.233952 7.889404 17,700 179 404 1216
2020-10-05 18:59:48 GMT 51.238358 7.889297 17,650 179 404 1216
2020-10-05 18:59:45 GMT 51.245960 7.889099 17,600 179 404 1536
2020-10-05 18:59:42 GMT 51.250103 7.888947 17,475 179 405 1984
2020-10-05 18:59:39 GMT 51.256573 7.888794 17,275 179 406 2176
2020-10-05 18:59:36 GMT 51.266922 7.888481 17,225 178 406 2560
2020-10-05 18:59:33 GMT 51.266922 7.888481 17,100 178 406 3904
2020-10-05 18:59:30 GMT 51.272263 7.888336 16,925 178 406 3968
2020-10-05 18:59:27 GMT 51.277199 7.888184 16,700 178 406 3712
2020-10-05 18:59:24 GMT 51.287998 7.887802 16,475 178 403 1792
2020-10-05 18:59:21 GMT 51.294342 7.887516 16,450 178 399 960
2020-10-05 18:59:18 GMT 51.299652 7.887293 16,425 178 397 768
2020-10-05 18:59:15 GMT 51.299652 7.887293 16,375 177 391 896
2020-10-05 18:59:12 GMT 51.304916 7.886996 16,350 176 387 960
2020-10-05 18:59:09 GMT 51.312019 7.886353 16,125 170 382 960
2020-10-05 18:59:06 GMT 51.315720 7.885734 16,200 170 382 960
2020-10-05 18:59:03 GMT 51.320072 7.884598 16,225 167 378 1216
2020-10-05 18:59:00 GMT 51.326820 7.882233 16,125 164 375 2176
2020-10-05 18:58:57 GMT 51.331924 7.879870 16,025 162 374 2624
2020-10-05 18:58:54 GMT 51.336784 7.877121 15,825 157 372 4352
2020-10-05 18:58:50 GMT 51.341812 7.873931 15,700 157 372 4352
2020-10-05 18:58:47 GMT 51.347210 7.869949 15,325 152 375 5888
2020-10-05 18:58:44 GMT 51.352570 7.865320 14,950 148 379 5632
2020-10-05 18:58:41 GMT 51.356380 7.861633 14,700 145 381 5504
2020-10-05 18:58:38 GMT 51.364437 7.852249 14,175 140 386 5120
2020-10-05 18:58:32 GMT 51.369324 7.845306 13,900 134 390 4800
2020-10-05 18:58:29 GMT 51.372711 7.839859 13,700 132 391 4608
2020-10-05 18:58:26 GMT 51.377377 7.831192 13,400 127 395 4288
2020-10-05 18:58:23 GMT 51.379990 7.825606 13,300 126 395 4160
2020-10-05 18:58:20 GMT 51.385529 7.811205 12,900 115 398 3584
2020-10-05 18:58:17 GMT 51.388000 7.802965 12,725 114 399 3520
2020-10-05 18:58:14 GMT 51.388000 7.802965 12,475 102 400 3328
2020-10-05 18:58:11 GMT 51.389946 7.795105 11,950 108 399 3520
2020-10-05 18:58:08 GMT 51.391708 7.786263 12,425 100 399 3264
2020-10-05 18:58:05 GMT 51.393391 7.774811 12,100 100 399 3200
2020-10-05 18:58:02 GMT 51.394043 7.769041 12,000 99 399 3136
2020-10-05 18:57:59 GMT 51.394928 7.759857 11,875 98 397 3072
2020-10-05 18:57:56 GMT 51.395737 7.751226 11,675 98 395 3008
2020-10-05 18:57:53 GMT 51.396465 7.743683 11,550 98 392 2240
2020-10-05 18:57:50 GMT 51.397255 7.734985 11,275 98 379 1088
2020-10-05 18:57:47 GMT 51.398209 7.724651 11,300 98 380 1088
2020-10-05 18:57:44 GMT 51.399117 7.714615 11,300 98 380 1088
2020-10-05 18:57:41 GMT 51.399673 7.708691 11,225 98 377 1024
2020-10-05 18:57:38 GMT 51.400467 7.700195 11,200 98 371 1088
2020-10-05 18:57:35 GMT 51.401028 7.694244 11,175 98 365 1152
2020-10-05 18:57:32 GMT 51.401871 7.684788 11,075 98 358 1216
2020-10-05 18:57:29 GMT 51.402611 7.676849 11,000 98 351 1216
2020-10-05 18:57:26 GMT 51.403336 7.668902 11,000 98 351 1216
2020-10-05 18:57:23 GMT 51.404144 7.660217 10,900 98 341 1216
2020-10-05 18:57:20 GMT 51.404663 7.654204 10,800 98 335 1344
2020-10-05 18:57:16 GMT 51.405636 7.643661 10,800 98 334 1344
2020-10-05 18:57:13 GMT 51.406239 7.636871 10,725 98 327 1408
2020-10-05 18:57:10 GMT 51.406815 7.630302 10,650 98 321 1664
2020-10-05 18:57:06 GMT 51.407589 7.621613 10,550 97 317 2112
2020-10-05 18:57:03 GMT 51.408325 7.613377 10,350 97 312 2496
2020-10-05 18:57:00 GMT 51.408939 7.606201 9,400 97 302 3584
2020-10-05 18:56:56 GMT 51.409733 7.596817 10,000 97 304 3264
2020-10-05 18:56:53 GMT 51.410294 7.590291 9,850 97 302 3584
2020-10-05 18:56:50 GMT 51.410801 7.583771 9,725 97 302 3648
2020-10-05 18:56:46 GMT 51.411530 7.574999 9,400 97 300 3712
2020-10-05 18:56:43 GMT 51.412060 7.568359 9,275 97 299 3776
2020-10-05 18:56:39 GMT 51.412663 7.561035 9,150 97 298 3904
2020-10-05 18:56:36 GMT 51.413132 7.554288 8,625 96 296 4032
2020-10-05 18:56:33 GMT 51.413643 7.547455 8,625 96 297 4160
2020-10-05 18:56:30 GMT 51.414139 7.540927 8,475 96 296 3712
2020-10-05 18:56:27 GMT 51.414711 7.532730 8,150 96 295 2752
2020-10-05 18:56:24 GMT 51.415176 7.526627 8,075 96 293 2112
2020-10-05 18:56:20 GMT 51.415829 7.517700 7,950 99 287 1408
2020-10-05 18:56:16 GMT 51.416668 7.509842 7,875 101 284 1344
2020-10-05 18:56:13 GMT 51.418900 7.498614 7,775 112 275 960
2020-10-05 18:56:10 GMT 51.422115 7.489471 7,625 116 271 960
2020-10-05 18:56:06 GMT 51.422115 7.489471 7,675 125 265 832
2020-10-05 18:56:03 GMT 51.423294 7.486886 7,625 135 264 640
2020-10-05 18:56:00 GMT 51.425446 7.483100 7,625 139 263 640
2020-10-05 18:55:57 GMT 51.429108 7.478052 7,550 146 264 576
2020-10-05 18:55:53 GMT 51.433273 7.473895 7,525 155 265 704
2020-10-05 18:55:49 GMT 51.437431 7.471085 7,500 157 265 704
2020-10-05 18:55:46 GMT 51.440872 7.469515 7,425 170 266 1088
2020-10-05 18:55:43 GMT 51.445808 7.468338 7,375 178 266 1856
2020-10-05 18:55:40 GMT 51.448555 7.468185 6,925 185 262 2496
2020-10-05 18:55:33 GMT 51.456516 7.469635 6,775 195 257 3520
2020-10-05 18:55:30 GMT 51.460922 7.471891 6,775 202 254 3392
2020-10-05 18:55:27 GMT 51.463547 7.473831 6,525 212 247 3520
2020-10-05 18:55:24 GMT 51.466244 7.476349 6,525 212 247 3520
2020-10-05 18:55:21 GMT 51.468430 7.478794 6,325 218 244 3392
2020-10-05 18:55:18 GMT 51.471458 7.482986 6,175 224 241 2944
2020-10-05 18:55:15 GMT 51.476299 7.492905 5,950 237 230 1856
2020-10-05 18:55:11 GMT 51.476299 7.492905 5,900 239 227 2048
2020-10-05 18:55:08 GMT 51.477905 7.497204 5,800 240 221 2112
2020-10-05 18:55:05 GMT 51.479691 7.502326 5,725 241 199 1856
2020-10-05 18:55:01 GMT 51.481422 7.507095 5,525 241 207 2048
2020-10-05 18:54:58 GMT 51.482620 7.510417 5,475 241 201 1920
2020-10-05 18:54:55 GMT 51.484222 7.514945 5,375 241 197 1856
2020-10-05 18:54:51 GMT 51.485825 7.519548 5,200 241 188 1856
2020-10-05 18:54:48 GMT 51.487194 7.523346 5,150 241 187 1856
2020-10-05 18:54:44 GMT 51.488914 7.528229 5,050 241 185 1984
2020-10-05 18:54:41 GMT 51.491455 7.535582 4,875 241 184 2368
2020-10-05 18:54:38 GMT 51.491455 7.535582 4,750 241 183 2752
2020-10-05 18:54:35 GMT 51.492733 7.539215 4,650 241 181 3008
2020-10-05 18:54:32 GMT 51.493790 7.542188 4,450 241 180 3200
2020-10-05 18:54:29 GMT 51.496948 7.551245 4,200 241 177 3648
2020-10-05 18:54:25 GMT 51.496948 7.551245 4,050 241 176 3648
2020-10-05 18:54:21 GMT 51.498737 7.556381 3,775 241 174 3712
2020-10-05 18:54:18 GMT 51.499531 7.558594 3,525 241 171 3264
2020-10-05 18:54:13 GMT 51.502625 7.567502 3,300 241 169 3008
2020-10-05 18:54:10 GMT 51.502625 7.567502 3,200 241 168 2880
2020-10-05 18:54:07 GMT 51.503578 7.570114 2,975 241 164 2112
2020-10-05 18:54:04 GMT 51.504868 7.573811 2,975 241 159 1536
2020-10-05 18:54:01 GMT 51.506001 7.576904 2,850 240 147 1728
2020-10-05 18:53:57 GMT 51.507431 7.581012 2,800 240 145 1920
2020-10-05 18:53:52 GMT 51.508980 7.585297 2,625 241 137 3328
2020-10-05 18:53:49 GMT 51.509811 7.587618 2,125 241 138 3072
2020-10-05 18:53:43 GMT 51.511635 7.592773 2,050 242 138 4352
2020-10-05 18:53:34 GMT 51.514709 7.601648 1,350 241 143 4224
2020-10-05 18:53:21 GMT 51.518894 7.613754 725 241 137 384
2020-10-05 18:53:13 GMT 51.521301 7.620652 725 239 72
2020-10-05 18:52:57 GMT 51.523212 7.626057 0 247 21
2020-10-05 18:52:47 GMT 51.523029 7.627295 0 326 17
2020-10-05 18:52:34 GMT 51.522160 7.627852 0 19 15
2020-10-05 18:52:15 GMT 51.521484 7.626590 0 61 9
2020-10-05 18:52:06 GMT 51.521336 7.626145 0 61 7
2020-10-05 18:51:38 GMT 51.520851 7.624779 0 61 11
2020-10-05 18:51:21 GMT 51.520187 7.622852 0 61 20
2020-10-05 18:51:09 GMT 51.519653 7.621338 0 61 20
2020-10-05 18:51:01 GMT 51.519333 7.620410 0 61 18
2020-10-05 18:50:49 GMT 51.518887 7.619186 0 61 14
2020-10-05 18:50:41 GMT 51.518654 7.618523 0 61 13
2020-10-05 18:50:30 GMT 51.518349 7.617682 0 61 14
2020-10-05 18:50:18 GMT 51.517952 7.616596 0 61 16
2020-10-05 18:50:09 GMT 51.517582 7.615528 0 61 17
2020-10-05 18:50:00 GMT 51.517250 7.614620 0 61 17
2020-10-05 18:49:50 GMT 51.516850 7.613487 0 61 15
2020-10-05 18:49:35 GMT 51.516441 7.612705 0 14 6
2020-10-05 18:48:13 GMT 51.515820 7.612932 0 329 0
2020-10-05 18:47:59 GMT 51.515823 7.612915 0 329 0
2020-10-05 18:47:39 GMT 51.515835 7.612934 0 329 0

Making use of Plane Finder data

You are free to use the raw flight data, aircraft information and images provided in this report for your own purposes provided the data is correctly attributed to Plane Finder. We ask that you please credit Plane Finder and link to planefinder.net in close proximity to the content.

Optionally one of the following logos (no smaller then 150x24px) can be used and must link to planefinder.net

Embedding the Plane Finder map

You are welcome to embed the Plane Finder playback map on your website to offer visitors a more interactive experience. We suggest using the following HTML code:

<iframe src="//planefinder.net/data/report/FR4386-EI-ENH-7700-squawk-2020-10-05/map" width="800" height="600" seamless="seamless"></iframe>

Where our data comes from

Plane Finder has a global network of data feeds and antenna radars that receive data broadcast directly from aircraft. The primary technologies used are ADS-B and MLAT. We also show feeds from the FAA and a FLARM glider feed.

Click here to find out more about the Plane Finder network.

How we collect our data